<?xml version="1.0" encoding="UTF-8" standalone="no" ?>
<gpx xmlns="http://www.topografix.com/GPX/1/1" xmlns:xsi="http://www.w3.org/2001/XMLSchema-instance" xsi:schemaLocation="http://www.topografix.com/GPX/1/1 http://www.topografix.com/GPX/1/1/gpx.xsd" version="1.1" creator="VisuGPX - https://www.visugpx.com">
  <metadata>
    <name>Col-de-Gachet-41-1200</name>
    <desc><![CDATA[Week-end VTT 2019 - Col de Gachet - 41 km - D+ : 1200 m]]></desc>
  </metadata>
  <trk>
    <name><![CDATA[Col-de-Gachet-41-1200]]></name>
    <trkseg>
      <trkpt lat="45.64456" lon="4.44798">
        <ele>630.719971</ele>
        <time>2019-07-12T06:27:24Z</time>
      </trkpt>
      <trkpt lat="45.64483" lon="4.44975">
        <ele>635.41748</ele>
        <time>2019-07-12T06:27:50Z</time>
      </trkpt>
      <trkpt lat="45.64628" lon="4.45034">
        <ele>638.512634</ele>
        <time>2019-07-12T06:28:21Z</time>
      </trkpt>
      <trkpt lat="45.64695" lon="4.45047">
        <ele>640.41333</ele>
        <time>2019-07-12T06:28:29Z</time>
      </trkpt>
      <trkpt lat="45.64689" lon="4.45144">
        <ele>635.932495</ele>
        <time>2019-07-12T06:28:35Z</time>
      </trkpt>
      <trkpt lat="45.6464" lon="4.45288">
        <ele>628.528259</ele>
        <time>2019-07-12T06:28:50Z</time>
      </trkpt>
      <trkpt lat="45.64608" lon="4.45472">
        <ele>619.056152</ele>
        <time>2019-07-12T06:28:55Z</time>
      </trkpt>
      <trkpt lat="45.64612" lon="4.45522">
        <ele>616.074585</ele>
        <time>2019-07-12T06:29:14Z</time>
      </trkpt>
      <trkpt lat="45.64629" lon="4.45549">
        <ele>616.033203</ele>
        <time>2019-07-12T06:29:32Z</time>
      </trkpt>
      <trkpt lat="45.64657" lon="4.45631">
        <ele>615.57251</ele>
        <time>2019-07-12T06:29:36Z</time>
      </trkpt>
      <trkpt lat="45.64651" lon="4.45662">
        <ele>613.009705</ele>
        <time>2019-07-12T06:29:43Z</time>
      </trkpt>
      <trkpt lat="45.64586" lon="4.45726">
        <ele>606.733643</ele>
        <time>2019-07-12T06:29:51Z</time>
      </trkpt>
      <trkpt lat="45.64507" lon="4.45706">
        <ele>606.563782</ele>
        <time>2019-07-12T06:29:58Z</time>
      </trkpt>
      <trkpt lat="45.64492" lon="4.45713">
        <ele>607.569702</ele>
        <time>2019-07-12T06:30:09Z</time>
      </trkpt>
      <trkpt lat="45.64497" lon="4.45758">
        <ele>608.551147</ele>
        <time>2019-07-12T06:30:36Z</time>
      </trkpt>
      <trkpt lat="45.6448" lon="4.45797">
        <ele>610.694336</ele>
        <time>2019-07-12T06:30:45Z</time>
      </trkpt>
      <trkpt lat="45.6447" lon="4.45839">
        <ele>612.840149</ele>
        <time>2019-07-12T06:31:08Z</time>
      </trkpt>
      <trkpt lat="45.6447" lon="4.45907">
        <ele>616.902405</ele>
        <time>2019-07-12T06:31:18Z</time>
      </trkpt>
      <trkpt lat="45.64355" lon="4.4591">
        <ele>629.617493</ele>
        <time>2019-07-12T06:31:49Z</time>
      </trkpt>
      <trkpt lat="45.6435" lon="4.45965">
        <ele>631.141479</ele>
        <time>2019-07-12T06:31:54Z</time>
      </trkpt>
      <trkpt lat="45.64323" lon="4.46099">
        <ele>634.094177</ele>
        <time>2019-07-12T06:33:11Z</time>
      </trkpt>
      <trkpt lat="45.64302" lon="4.4615">
        <ele>633.794861</ele>
        <time>2019-07-12T06:33:20Z</time>
      </trkpt>
      <trkpt lat="45.64207" lon="4.4629">
        <ele>625.012512</ele>
        <time>2019-07-12T06:33:35Z</time>
      </trkpt>
      <trkpt lat="45.64189" lon="4.46301">
        <ele>623.857483</ele>
        <time>2019-07-12T06:33:57Z</time>
      </trkpt>
      <trkpt lat="45.63858" lon="4.46296">
        <ele>604.700012</ele>
        <time>2019-07-12T06:34:01Z</time>
      </trkpt>
      <trkpt lat="45.63826" lon="4.46274">
        <ele>601.960022</ele>
        <time>2019-07-12T06:34:14Z</time>
      </trkpt>
      <trkpt lat="45.63788" lon="4.46201">
        <ele>599.669983</ele>
        <time>2019-07-12T06:34:17Z</time>
      </trkpt>
      <trkpt lat="45.63711" lon="4.46115">
        <ele>593.333679</ele>
        <time>2019-07-12T06:34:32Z</time>
      </trkpt>
      <trkpt lat="45.63696" lon="4.46114">
        <ele>592.00061</ele>
        <time>2019-07-12T06:34:35Z</time>
      </trkpt>
      <trkpt lat="45.63711" lon="4.46193">
        <ele>588.705017</ele>
        <time>2019-07-12T06:34:59Z</time>
      </trkpt>
      <trkpt lat="45.63704" lon="4.46207">
        <ele>587.15625</ele>
        <time>2019-07-12T06:35:02Z</time>
      </trkpt>
      <trkpt lat="45.63659" lon="4.46144">
        <ele>588.421265</ele>
        <time>2019-07-12T06:35:06Z</time>
      </trkpt>
      <trkpt lat="45.63647" lon="4.46144">
        <ele>588.131226</ele>
        <time>2019-07-12T06:35:07Z</time>
      </trkpt>
      <trkpt lat="45.63569" lon="4.46245">
        <ele>582.19104</ele>
        <time>2019-07-12T06:35:20Z</time>
      </trkpt>
      <trkpt lat="45.63556" lon="4.46246">
        <ele>583.194153</ele>
        <time>2019-07-12T06:35:32Z</time>
      </trkpt>
      <trkpt lat="45.63552" lon="4.46225">
        <ele>585.597473</ele>
        <time>2019-07-12T06:36:14Z</time>
      </trkpt>
      <trkpt lat="45.63545" lon="4.46224">
        <ele>586.284973</ele>
        <time>2019-07-12T06:36:23Z</time>
      </trkpt>
      <trkpt lat="45.63536" lon="4.46301">
        <ele>580.005005</ele>
        <time>2019-07-12T06:36:39Z</time>
      </trkpt>
      <trkpt lat="45.63515" lon="4.4637">
        <ele>575.410706</ele>
        <time>2019-07-12T06:36:45Z</time>
      </trkpt>
      <trkpt lat="45.63473" lon="4.46616">
        <ele>557.878601</ele>
        <time>2019-07-12T06:37:05Z</time>
      </trkpt>
      <trkpt lat="45.63474" lon="4.46672">
        <ele>552.027893</ele>
        <time>2019-07-12T06:38:26Z</time>
      </trkpt>
      <trkpt lat="45.63508" lon="4.46755">
        <ele>549.080139</ele>
        <time>2019-07-12T06:38:50Z</time>
      </trkpt>
      <trkpt lat="45.6349" lon="4.46783">
        <ele>551.527527</ele>
        <time>2019-07-12T06:38:56Z</time>
      </trkpt>
      <trkpt lat="45.63415" lon="4.46849">
        <ele>556.971069</ele>
        <time>2019-07-12T06:39:15Z</time>
      </trkpt>
      <trkpt lat="45.63096" lon="4.47035">
        <ele>572.984985</ele>
        <time>2019-07-12T06:39:31Z</time>
      </trkpt>
      <trkpt lat="45.62996" lon="4.47009">
        <ele>561.725708</ele>
        <time>2019-07-12T06:39:38Z</time>
      </trkpt>
      <trkpt lat="45.62971" lon="4.47021">
        <ele>560.362549</ele>
        <time>2019-07-12T06:39:44Z</time>
      </trkpt>
      <trkpt lat="45.62925" lon="4.47117">
        <ele>559.828735</ele>
        <time>2019-07-12T06:39:47Z</time>
      </trkpt>
      <trkpt lat="45.62908" lon="4.47211">
        <ele>552.148376</ele>
        <time>2019-07-12T06:40:05Z</time>
      </trkpt>
      <trkpt lat="45.62927" lon="4.47244">
        <ele>548.555176</ele>
        <time>2019-07-12T06:40:16Z</time>
      </trkpt>
      <trkpt lat="45.62936" lon="4.47279">
        <ele>545.38562</ele>
        <time>2019-07-12T06:40:27Z</time>
      </trkpt>
      <trkpt lat="45.62936" lon="4.47299">
        <ele>543.223572</ele>
        <time>2019-07-12T06:40:39Z</time>
      </trkpt>
      <trkpt lat="45.62908" lon="4.47403">
        <ele>543.599609</ele>
        <time>2019-07-12T06:40:58Z</time>
      </trkpt>
      <trkpt lat="45.62873" lon="4.47448">
        <ele>541.776001</ele>
        <time>2019-07-12T06:41:09Z</time>
      </trkpt>
      <trkpt lat="45.62861" lon="4.47514">
        <ele>550.035034</ele>
        <time>2019-07-12T06:41:15Z</time>
      </trkpt>
      <trkpt lat="45.62863" lon="4.47587">
        <ele>555.07373</ele>
        <time>2019-07-12T06:41:25Z</time>
      </trkpt>
      <trkpt lat="45.62856" lon="4.477">
        <ele>559.605774</ele>
        <time>2019-07-12T06:41:33Z</time>
      </trkpt>
      <trkpt lat="45.62843" lon="4.47765">
        <ele>561.537415</ele>
        <time>2019-07-12T06:41:42Z</time>
      </trkpt>
      <trkpt lat="45.62828" lon="4.478">
        <ele>562.477173</ele>
        <time>2019-07-12T06:42:00Z</time>
      </trkpt>
      <trkpt lat="45.62798" lon="4.47839">
        <ele>564.778442</ele>
        <time>2019-07-12T06:42:12Z</time>
      </trkpt>
      <trkpt lat="45.62768" lon="4.47866">
        <ele>565.518738</ele>
        <time>2019-07-12T06:42:35Z</time>
      </trkpt>
      <trkpt lat="45.62734" lon="4.47884">
        <ele>564.362488</ele>
        <time>2019-07-12T06:42:45Z</time>
      </trkpt>
      <trkpt lat="45.62669" lon="4.47945">
        <ele>560.752502</ele>
        <time>2019-07-12T06:42:52Z</time>
      </trkpt>
      <trkpt lat="45.62636" lon="4.48002">
        <ele>557.26886</ele>
        <time>2019-07-12T06:42:58Z</time>
      </trkpt>
      <trkpt lat="45.62547" lon="4.4807">
        <ele>547.959839</ele>
        <time>2019-07-12T06:43:10Z</time>
      </trkpt>
      <trkpt lat="45.62522" lon="4.48114">
        <ele>543.586548</ele>
        <time>2019-07-12T06:43:15Z</time>
      </trkpt>
      <trkpt lat="45.6251" lon="4.48152">
        <ele>543.212646</ele>
        <time>2019-07-12T06:43:24Z</time>
      </trkpt>
      <trkpt lat="45.62486" lon="4.48169">
        <ele>541.916504</ele>
        <time>2019-07-12T06:43:30Z</time>
      </trkpt>
      <trkpt lat="45.62432" lon="4.48168">
        <ele>535.607483</ele>
        <time>2019-07-12T06:43:34Z</time>
      </trkpt>
      <trkpt lat="45.62418" lon="4.4815">
        <ele>532.544067</ele>
        <time>2019-07-12T06:43:37Z</time>
      </trkpt>
      <trkpt lat="45.6243" lon="4.48099">
        <ele>530.910156</ele>
        <time>2019-07-12T06:43:43Z</time>
      </trkpt>
      <trkpt lat="45.62432" lon="4.48061">
        <ele>529.976135</ele>
        <time>2019-07-12T06:43:59Z</time>
      </trkpt>
      <trkpt lat="45.62421" lon="4.48044">
        <ele>528.452332</ele>
        <time>2019-07-12T06:44:06Z</time>
      </trkpt>
      <trkpt lat="45.62405" lon="4.4805">
        <ele>527.461487</ele>
        <time>2019-07-12T06:44:11Z</time>
      </trkpt>
      <trkpt lat="45.6239" lon="4.48075">
        <ele>527.219971</ele>
        <time>2019-07-12T06:44:35Z</time>
      </trkpt>
      <trkpt lat="45.62376" lon="4.48175">
        <ele>528.710022</ele>
        <time>2019-07-12T06:44:42Z</time>
      </trkpt>
      <trkpt lat="45.62364" lon="4.4821">
        <ele>529.064331</ele>
        <time>2019-07-12T06:44:46Z</time>
      </trkpt>
      <trkpt lat="45.62345" lon="4.48221">
        <ele>527.774536</ele>
        <time>2019-07-12T06:45:04Z</time>
      </trkpt>
      <trkpt lat="45.6224" lon="4.48235">
        <ele>529.306641</ele>
        <time>2019-07-12T06:45:09Z</time>
      </trkpt>
      <trkpt lat="45.62214" lon="4.48256">
        <ele>532.96698</ele>
        <time>2019-07-12T06:45:15Z</time>
      </trkpt>
      <trkpt lat="45.62206" lon="4.48275">
        <ele>534.219971</ele>
        <time>2019-07-12T06:45:23Z</time>
      </trkpt>
      <trkpt lat="45.62188" lon="4.4838">
        <ele>536.670471</ele>
        <time>2019-07-12T06:45:38Z</time>
      </trkpt>
      <trkpt lat="45.62178" lon="4.48408">
        <ele>536.120422</ele>
        <time>2019-07-12T06:45:43Z</time>
      </trkpt>
      <trkpt lat="45.62158" lon="4.48434">
        <ele>538.287598</ele>
        <time>2019-07-12T06:45:54Z</time>
      </trkpt>
      <trkpt lat="45.62127" lon="4.48454">
        <ele>542.876282</ele>
        <time>2019-07-12T06:46:01Z</time>
      </trkpt>
      <trkpt lat="45.62062" lon="4.48463">
        <ele>545.838196</ele>
        <time>2019-07-12T06:46:08Z</time>
      </trkpt>
      <trkpt lat="45.62042" lon="4.48455">
        <ele>545.182495</ele>
        <time>2019-07-12T06:46:38Z</time>
      </trkpt>
      <trkpt lat="45.62001" lon="4.48418">
        <ele>545.870972</ele>
        <time>2019-07-12T06:46:46Z</time>
      </trkpt>
      <trkpt lat="45.61973" lon="4.48412">
        <ele>545.154419</ele>
        <time>2019-07-12T06:47:00Z</time>
      </trkpt>
      <trkpt lat="45.61947" lon="4.48434">
        <ele>541.77887</ele>
        <time>2019-07-12T06:47:04Z</time>
      </trkpt>
      <trkpt lat="45.61858" lon="4.48564">
        <ele>560.498535</ele>
        <time>2019-07-12T06:47:16Z</time>
      </trkpt>
      <trkpt lat="45.61825" lon="4.48575">
        <ele>564.561768</ele>
        <time>2019-07-12T06:47:40Z</time>
      </trkpt>
      <trkpt lat="45.61766" lon="4.48609">
        <ele>571.46405</ele>
        <time>2019-07-12T06:47:55Z</time>
      </trkpt>
      <trkpt lat="45.61758" lon="4.48624">
        <ele>573.55127</ele>
        <time>2019-07-12T06:48:02Z</time>
      </trkpt>
      <trkpt lat="45.61763" lon="4.48702">
        <ele>585.138123</ele>
        <time>2019-07-12T06:48:24Z</time>
      </trkpt>
      <trkpt lat="45.61733" lon="4.4884">
        <ele>593.759277</ele>
        <time>2019-07-12T06:49:05Z</time>
      </trkpt>
      <trkpt lat="45.6172" lon="4.48928">
        <ele>599.988281</ele>
        <time>2019-07-12T06:49:22Z</time>
      </trkpt>
      <trkpt lat="45.61709" lon="4.48967">
        <ele>602.44519</ele>
        <time>2019-07-12T06:49:25Z</time>
      </trkpt>
      <trkpt lat="45.61636" lon="4.49057">
        <ele>616.394409</ele>
        <time>2019-07-12T06:49:45Z</time>
      </trkpt>
      <trkpt lat="45.616" lon="4.49302">
        <ele>646.047363</ele>
        <time>2019-07-12T06:50:06Z</time>
      </trkpt>
      <trkpt lat="45.6159" lon="4.49406">
        <ele>660.081055</ele>
        <time>2019-07-12T06:50:19Z</time>
      </trkpt>
      <trkpt lat="45.61594" lon="4.4942">
        <ele>661.738159</ele>
        <time>2019-07-12T06:50:36Z</time>
      </trkpt>
      <trkpt lat="45.61576" lon="4.49543">
        <ele>672.887939</ele>
        <time>2019-07-12T06:51:10Z</time>
      </trkpt>
      <trkpt lat="45.61586" lon="4.49668">
        <ele>676.263977</ele>
        <time>2019-07-12T06:51:18Z</time>
      </trkpt>
      <trkpt lat="45.61577" lon="4.49749">
        <ele>680.366394</ele>
        <time>2019-07-12T06:51:45Z</time>
      </trkpt>
      <trkpt lat="45.6154" lon="4.49839">
        <ele>684.948425</ele>
        <time>2019-07-12T06:51:55Z</time>
      </trkpt>
      <trkpt lat="45.61433" lon="4.49976">
        <ele>690.381653</ele>
        <time>2019-07-12T06:52:11Z</time>
      </trkpt>
      <trkpt lat="45.61414" lon="4.50019">
        <ele>691.178772</ele>
        <time>2019-07-12T06:52:18Z</time>
      </trkpt>
      <trkpt lat="45.613" lon="4.50053">
        <ele>690.931824</ele>
        <time>2019-07-12T06:52:37Z</time>
      </trkpt>
      <trkpt lat="45.61262" lon="4.50072">
        <ele>691.405029</ele>
        <time>2019-07-12T06:53:17Z</time>
      </trkpt>
      <trkpt lat="45.612" lon="4.50119">
        <ele>694.65155</ele>
        <time>2019-07-12T06:53:26Z</time>
      </trkpt>
      <trkpt lat="45.61177" lon="4.50144">
        <ele>695.462646</ele>
        <time>2019-07-12T06:53:47Z</time>
      </trkpt>
      <trkpt lat="45.6114" lon="4.5025">
        <ele>699.953003</ele>
        <time>2019-07-12T06:54:09Z</time>
      </trkpt>
      <trkpt lat="45.61098" lon="4.50486">
        <ele>711.556641</ele>
        <time>2019-07-12T06:54:17Z</time>
      </trkpt>
      <trkpt lat="45.61074" lon="4.50527">
        <ele>717.041382</ele>
        <time>2019-07-12T06:54:23Z</time>
      </trkpt>
      <trkpt lat="45.61038" lon="4.50651">
        <ele>725.502991</ele>
        <time>2019-07-12T06:54:35Z</time>
      </trkpt>
      <trkpt lat="45.60983" lon="4.5076">
        <ele>731.900024</ele>
        <time>2019-07-12T06:54:40Z</time>
      </trkpt>
      <trkpt lat="45.60959" lon="4.50793">
        <ele>735.317688</ele>
        <time>2019-07-12T06:54:45Z</time>
      </trkpt>
      <trkpt lat="45.60934" lon="4.50807">
        <ele>738.453491</ele>
        <time>2019-07-12T06:54:51Z</time>
      </trkpt>
      <trkpt lat="45.60894" lon="4.50845">
        <ele>742.226135</ele>
        <time>2019-07-12T06:55:01Z</time>
      </trkpt>
      <trkpt lat="45.6088" lon="4.50871">
        <ele>743.530029</ele>
        <time>2019-07-12T06:55:11Z</time>
      </trkpt>
      <trkpt lat="45.60879" lon="4.50903">
        <ele>744.946472</ele>
        <time>2019-07-12T06:55:25Z</time>
      </trkpt>
      <trkpt lat="45.60886" lon="4.50938">
        <ele>747.080017</ele>
        <time>2019-07-12T06:55:33Z</time>
      </trkpt>
      <trkpt lat="45.6092" lon="4.50978">
        <ele>748.224976</ele>
        <time>2019-07-12T06:55:44Z</time>
      </trkpt>
      <trkpt lat="45.60925" lon="4.51035">
        <ele>753.103088</ele>
        <time>2019-07-12T06:56:14Z</time>
      </trkpt>
      <trkpt lat="45.60909" lon="4.5112">
        <ele>760.14917</ele>
        <time>2019-07-12T06:57:04Z</time>
      </trkpt>
      <trkpt lat="45.60893" lon="4.51165">
        <ele>762.351685</ele>
        <time>2019-07-12T06:57:27Z</time>
      </trkpt>
      <trkpt lat="45.60864" lon="4.51217">
        <ele>764.0625</ele>
        <time>2019-07-12T06:57:49Z</time>
      </trkpt>
      <trkpt lat="45.60797" lon="4.51371">
        <ele>766.496765</ele>
        <time>2019-07-12T06:58:19Z</time>
      </trkpt>
      <trkpt lat="45.60701" lon="4.51642">
        <ele>772.91925</ele>
        <time>2019-07-12T06:58:45Z</time>
      </trkpt>
      <trkpt lat="45.60638" lon="4.51757">
        <ele>773.434143</ele>
        <time>2019-07-12T06:58:59Z</time>
      </trkpt>
      <trkpt lat="45.60567" lon="4.5184">
        <ele>781.210693</ele>
        <time>2019-07-12T06:59:07Z</time>
      </trkpt>
      <trkpt lat="45.60462" lon="4.51945">
        <ele>796.4729</ele>
        <time>2019-07-12T06:59:13Z</time>
      </trkpt>
      <trkpt lat="45.60398" lon="4.52077">
        <ele>807.063232</ele>
        <time>2019-07-12T06:59:21Z</time>
      </trkpt>
      <trkpt lat="45.60371" lon="4.52153">
        <ele>813.362854</ele>
        <time>2019-07-12T06:59:22Z</time>
      </trkpt>
      <trkpt lat="45.60346" lon="4.52189">
        <ele>816.287048</ele>
        <time>2019-07-12T06:59:25Z</time>
      </trkpt>
      <trkpt lat="45.60333" lon="4.52222">
        <ele>816.510559</ele>
        <time>2019-07-12T06:59:28Z</time>
      </trkpt>
      <trkpt lat="45.60307" lon="4.52244">
        <ele>816.152527</ele>
        <time>2019-07-12T06:59:45Z</time>
      </trkpt>
      <trkpt lat="45.60314" lon="4.52239">
        <ele>816.109985</ele>
        <time>2019-07-12T07:00:09Z</time>
      </trkpt>
      <trkpt lat="45.60306" lon="4.52247">
        <ele>815.900024</ele>
        <time>2019-07-12T07:00:21Z</time>
      </trkpt>
      <trkpt lat="45.60291" lon="4.52244">
        <ele>817.502502</ele>
        <time>2019-07-12T07:00:56Z</time>
      </trkpt>
      <trkpt lat="45.60249" lon="4.52157">
        <ele>826.598267</ele>
        <time>2019-07-12T07:01:14Z</time>
      </trkpt>
      <trkpt lat="45.60168" lon="4.52071">
        <ele>828.033264</ele>
        <time>2019-07-12T07:01:27Z</time>
      </trkpt>
      <trkpt lat="45.60124" lon="4.52037">
        <ele>828.631165</ele>
        <time>2019-07-12T07:01:44Z</time>
      </trkpt>
      <trkpt lat="45.60006" lon="4.51904">
        <ele>833.595337</ele>
        <time>2019-07-12T07:02:00Z</time>
      </trkpt>
      <trkpt lat="45.59933" lon="4.51862">
        <ele>835.252502</ele>
        <time>2019-07-12T07:02:10Z</time>
      </trkpt>
      <trkpt lat="45.59886" lon="4.51822">
        <ele>835.87439</ele>
        <time>2019-07-12T07:02:33Z</time>
      </trkpt>
      <trkpt lat="45.59818" lon="4.51778">
        <ele>840.609619</ele>
        <time>2019-07-12T07:02:47Z</time>
      </trkpt>
      <trkpt lat="45.59762" lon="4.51729">
        <ele>842.398132</ele>
        <time>2019-07-12T07:02:58Z</time>
      </trkpt>
      <trkpt lat="45.59721" lon="4.51712">
        <ele>843.641296</ele>
        <time>2019-07-12T07:03:15Z</time>
      </trkpt>
      <trkpt lat="45.59624" lon="4.51688">
        <ele>845.752991</ele>
        <time>2019-07-12T07:03:58Z</time>
      </trkpt>
      <trkpt lat="45.59569" lon="4.51656">
        <ele>846.61145</ele>
        <time>2019-07-12T07:04:12Z</time>
      </trkpt>
      <trkpt lat="45.59531" lon="4.51616">
        <ele>849.223694</ele>
        <time>2019-07-12T07:04:38Z</time>
      </trkpt>
      <trkpt lat="45.59487" lon="4.51528">
        <ele>855.159973</ele>
        <time>2019-07-12T07:04:49Z</time>
      </trkpt>
      <trkpt lat="45.59351" lon="4.51354">
        <ele>878.031128</ele>
        <time>2019-07-12T07:05:10Z</time>
      </trkpt>
      <trkpt lat="45.59312" lon="4.51284">
        <ele>885.013</ele>
        <time>2019-07-12T07:05:34Z</time>
      </trkpt>
      <trkpt lat="45.59228" lon="4.51186">
        <ele>901.235352</ele>
        <time>2019-07-12T07:05:49Z</time>
      </trkpt>
      <trkpt lat="45.59196" lon="4.51135">
        <ele>905.233093</ele>
        <time>2019-07-12T07:06:19Z</time>
      </trkpt>
      <trkpt lat="45.59124" lon="4.51059">
        <ele>910.879028</ele>
        <time>2019-07-12T07:06:29Z</time>
      </trkpt>
      <trkpt lat="45.59024" lon="4.51015">
        <ele>913.826721</ele>
        <time>2019-07-12T07:07:04Z</time>
      </trkpt>
      <trkpt lat="45.5897" lon="4.50974">
        <ele>912.002502</ele>
        <time>2019-07-12T07:07:25Z</time>
      </trkpt>
      <trkpt lat="45.58876" lon="4.50849">
        <ele>908.446411</ele>
        <time>2019-07-12T07:07:30Z</time>
      </trkpt>
      <trkpt lat="45.58862" lon="4.50787">
        <ele>909.483459</ele>
        <time>2019-07-12T07:07:54Z</time>
      </trkpt>
      <trkpt lat="45.58796" lon="4.50594">
        <ele>904.942505</ele>
        <time>2019-07-12T07:08:22Z</time>
      </trkpt>
      <trkpt lat="45.5874" lon="4.50499">
        <ele>901.758728</ele>
        <time>2019-07-12T07:08:30Z</time>
      </trkpt>
      <trkpt lat="45.58719" lon="4.50489">
        <ele>902.123779</ele>
        <time>2019-07-12T07:08:39Z</time>
      </trkpt>
      <trkpt lat="45.58614" lon="4.50483">
        <ele>910.971924</ele>
        <time>2019-07-12T07:09:02Z</time>
      </trkpt>
      <trkpt lat="45.58498" lon="4.50505">
        <ele>926.406921</ele>
        <time>2019-07-12T07:09:36Z</time>
      </trkpt>
      <trkpt lat="45.58464" lon="4.50482">
        <ele>930.934143</ele>
        <time>2019-07-12T07:09:43Z</time>
      </trkpt>
      <trkpt lat="45.58428" lon="4.5048">
        <ele>935.425964</ele>
        <time>2019-07-12T07:10:05Z</time>
      </trkpt>
      <trkpt lat="45.58329" lon="4.50494">
        <ele>938.052856</ele>
        <time>2019-07-12T07:10:09Z</time>
      </trkpt>
      <trkpt lat="45.58187" lon="4.50534">
        <ele>916.877502</ele>
        <time>2019-07-12T07:10:18Z</time>
      </trkpt>
      <trkpt lat="45.58156" lon="4.50535">
        <ele>911.64502</ele>
        <time>2019-07-12T07:10:39Z</time>
      </trkpt>
      <trkpt lat="45.58066" lon="4.50509">
        <ele>903.349915</ele>
        <time>2019-07-12T07:10:44Z</time>
      </trkpt>
      <trkpt lat="45.58047" lon="4.50512">
        <ele>900.700806</ele>
        <time>2019-07-12T07:11:01Z</time>
      </trkpt>
      <trkpt lat="45.58011" lon="4.50533">
        <ele>895.508423</ele>
        <time>2019-07-12T07:11:25Z</time>
      </trkpt>
      <trkpt lat="45.57937" lon="4.50599">
        <ele>889.806885</ele>
        <time>2019-07-12T07:11:51Z</time>
      </trkpt>
      <trkpt lat="45.57913" lon="4.50597">
        <ele>888.970032</ele>
        <time>2019-07-12T07:12:09Z</time>
      </trkpt>
      <trkpt lat="45.57845" lon="4.50628">
        <ele>885.910034</ele>
        <time>2019-07-12T07:12:48Z</time>
      </trkpt>
      <trkpt lat="45.57756" lon="4.50698">
        <ele>880.368652</ele>
        <time>2019-07-12T07:13:24Z</time>
      </trkpt>
      <trkpt lat="45.57647" lon="4.5074">
        <ele>884.54364</ele>
        <time>2019-07-12T07:13:41Z</time>
      </trkpt>
      <trkpt lat="45.5758" lon="4.50795">
        <ele>889</ele>
        <time>2019-07-12T07:13:50Z</time>
      </trkpt>
      <trkpt lat="45.57419" lon="4.5087">
        <ele>890.592407</ele>
        <time>2019-07-12T07:13:58Z</time>
      </trkpt>
      <trkpt lat="45.57268" lon="4.50912">
        <ele>876.744995</ele>
        <time>2019-07-12T07:14:13Z</time>
      </trkpt>
      <trkpt lat="45.57201" lon="4.50951">
        <ele>870.580017</ele>
        <time>2019-07-12T07:14:21Z</time>
      </trkpt>
      <trkpt lat="45.57164" lon="4.50964">
        <ele>869.133423</ele>
        <time>2019-07-12T07:14:36Z</time>
      </trkpt>
      <trkpt lat="45.57132" lon="4.50985">
        <ele>866.82843</ele>
        <time>2019-07-12T07:14:46Z</time>
      </trkpt>
      <trkpt lat="45.57093" lon="4.51053">
        <ele>861.60321</ele>
        <time>2019-07-12T07:14:57Z</time>
      </trkpt>
      <trkpt lat="45.57084" lon="4.51099">
        <ele>861.629578</ele>
        <time>2019-07-12T07:15:11Z</time>
      </trkpt>
      <trkpt lat="45.57094" lon="4.51193">
        <ele>862.926514</ele>
        <time>2019-07-12T07:15:17Z</time>
      </trkpt>
      <trkpt lat="45.57092" lon="4.51256">
        <ele>865.545105</ele>
        <time>2019-07-12T07:15:18Z</time>
      </trkpt>
      <trkpt lat="45.57078" lon="4.51317">
        <ele>866.77002</ele>
        <time>2019-07-12T07:15:22Z</time>
      </trkpt>
      <trkpt lat="45.57045" lon="4.51389">
        <ele>866.797485</ele>
        <time>2019-07-12T07:15:32Z</time>
      </trkpt>
      <trkpt lat="45.57026" lon="4.5141">
        <ele>866.942505</ele>
        <time>2019-07-12T07:15:43Z</time>
      </trkpt>
      <trkpt lat="45.5702" lon="4.51408">
        <ele>867.267517</ele>
        <time>2019-07-12T07:15:54Z</time>
      </trkpt>
      <trkpt lat="45.57019" lon="4.51384">
        <ele>868.080017</ele>
        <time>2019-07-12T07:16:19Z</time>
      </trkpt>
      <trkpt lat="45.57029" lon="4.51325">
        <ele>869.173828</ele>
        <time>2019-07-12T07:16:39Z</time>
      </trkpt>
      <trkpt lat="45.5703" lon="4.51259">
        <ele>869.559998</ele>
        <time>2019-07-12T07:16:57Z</time>
      </trkpt>
      <trkpt lat="45.5702" lon="4.5119">
        <ele>868.60498</ele>
        <time>2019-07-12T07:17:04Z</time>
      </trkpt>
      <trkpt lat="45.56985" lon="4.51045">
        <ele>865.038269</ele>
        <time>2019-07-12T07:17:10Z</time>
      </trkpt>
      <trkpt lat="45.56973" lon="4.50923">
        <ele>869.047485</ele>
        <time>2019-07-12T07:17:23Z</time>
      </trkpt>
      <trkpt lat="45.56949" lon="4.50824">
        <ele>874.352234</ele>
        <time>2019-07-12T07:17:43Z</time>
      </trkpt>
      <trkpt lat="45.56934" lon="4.50782">
        <ele>876.539551</ele>
        <time>2019-07-12T07:18:00Z</time>
      </trkpt>
      <trkpt lat="45.56928" lon="4.50746">
        <ele>879.340027</ele>
        <time>2019-07-12T07:18:21Z</time>
      </trkpt>
      <trkpt lat="45.56929" lon="4.50668">
        <ele>880.976868</ele>
        <time>2019-07-12T07:18:31Z</time>
      </trkpt>
      <trkpt lat="45.56908" lon="4.50551">
        <ele>874.955017</ele>
        <time>2019-07-12T07:18:38Z</time>
      </trkpt>
      <trkpt lat="45.56884" lon="4.5045">
        <ele>863.190002</ele>
        <time>2019-07-12T07:19:07Z</time>
      </trkpt>
      <trkpt lat="45.56872" lon="4.50326">
        <ele>850.317505</ele>
        <time>2019-07-12T07:19:49Z</time>
      </trkpt>
      <trkpt lat="45.56871" lon="4.50265">
        <ele>844.672729</ele>
        <time>2019-07-12T07:20:34Z</time>
      </trkpt>
      <trkpt lat="45.5686" lon="4.50221">
        <ele>840.509644</ele>
        <time>2019-07-12T07:20:53Z</time>
      </trkpt>
      <trkpt lat="45.56785" lon="4.50084">
        <ele>829.027771</ele>
        <time>2019-07-12T07:22:12Z</time>
      </trkpt>
      <trkpt lat="45.5664" lon="4.49933">
        <ele>830.829224</ele>
        <time>2019-07-12T07:22:25Z</time>
      </trkpt>
      <trkpt lat="45.56466" lon="4.49804">
        <ele>838.177124</ele>
        <time>2019-07-12T07:22:50Z</time>
      </trkpt>
      <trkpt lat="45.56401" lon="4.49737">
        <ele>839.530334</ele>
        <time>2019-07-12T07:23:06Z</time>
      </trkpt>
      <trkpt lat="45.56108" lon="4.49503">
        <ele>840.453064</ele>
        <time>2019-07-12T07:23:35Z</time>
      </trkpt>
      <trkpt lat="45.56052" lon="4.49479">
        <ele>843.184326</ele>
        <time>2019-07-12T07:24:03Z</time>
      </trkpt>
      <trkpt lat="45.55946" lon="4.4949">
        <ele>846.581238</ele>
        <time>2019-07-12T07:24:09Z</time>
      </trkpt>
      <trkpt lat="45.55881" lon="4.49514">
        <ele>848.892578</ele>
        <time>2019-07-12T07:24:32Z</time>
      </trkpt>
      <trkpt lat="45.55771" lon="4.49597">
        <ele>856.675842</ele>
        <time>2019-07-12T07:24:59Z</time>
      </trkpt>
      <trkpt lat="45.5565" lon="4.49603">
        <ele>866.373962</ele>
        <time>2019-07-12T07:25:13Z</time>
      </trkpt>
      <trkpt lat="45.55626" lon="4.49599">
        <ele>867.570313</ele>
        <time>2019-07-12T07:25:39Z</time>
      </trkpt>
      <trkpt lat="45.55533" lon="4.49553">
        <ele>867.213074</ele>
        <time>2019-07-12T07:25:55Z</time>
      </trkpt>
      <trkpt lat="45.55422" lon="4.49509">
        <ele>866.229126</ele>
        <time>2019-07-12T07:26:09Z</time>
      </trkpt>
      <trkpt lat="45.55369" lon="4.49465">
        <ele>865.362488</ele>
        <time>2019-07-12T07:26:17Z</time>
      </trkpt>
      <trkpt lat="45.55257" lon="4.49446">
        <ele>861.297119</ele>
        <time>2019-07-12T07:26:39Z</time>
      </trkpt>
      <trkpt lat="45.55192" lon="4.49423">
        <ele>858.226868</ele>
        <time>2019-07-12T07:26:42Z</time>
      </trkpt>
      <trkpt lat="45.55131" lon="4.49435">
        <ele>850.291138</ele>
        <time>2019-07-12T07:26:49Z</time>
      </trkpt>
      <trkpt lat="45.55099" lon="4.49452">
        <ele>844.665527</ele>
        <time>2019-07-12T07:27:08Z</time>
      </trkpt>
      <trkpt lat="45.55027" lon="4.49538">
        <ele>827.20752</ele>
        <time>2019-07-12T07:27:31Z</time>
      </trkpt>
      <trkpt lat="45.55017" lon="4.49543">
        <ele>825.391785</ele>
        <time>2019-07-12T07:27:51Z</time>
      </trkpt>
      <trkpt lat="45.54995" lon="4.49575">
        <ele>819.367126</ele>
        <time>2019-07-12T07:28:03Z</time>
      </trkpt>
      <trkpt lat="45.54926" lon="4.49634">
        <ele>803.628906</ele>
        <time>2019-07-12T07:28:14Z</time>
      </trkpt>
      <trkpt lat="45.5483" lon="4.4966">
        <ele>786.616516</ele>
        <time>2019-07-12T07:28:19Z</time>
      </trkpt>
      <trkpt lat="45.54741" lon="4.49665">
        <ele>776.920105</ele>
        <time>2019-07-12T07:28:51Z</time>
      </trkpt>
      <trkpt lat="45.54691" lon="4.49659">
        <ele>775.746521</ele>
        <time>2019-07-12T07:29:12Z</time>
      </trkpt>
      <trkpt lat="45.54646" lon="4.49672">
        <ele>778.099976</ele>
        <time>2019-07-12T07:29:40Z</time>
      </trkpt>
      <trkpt lat="45.54626" lon="4.49663">
        <ele>776.952515</ele>
        <time>2019-07-12T07:30:07Z</time>
      </trkpt>
      <trkpt lat="45.54489" lon="4.49651">
        <ele>772.768433</ele>
        <time>2019-07-12T07:30:41Z</time>
      </trkpt>
      <trkpt lat="45.54401" lon="4.49611">
        <ele>772.193665</ele>
        <time>2019-07-12T07:30:58Z</time>
      </trkpt>
      <trkpt lat="45.54303" lon="4.4952">
        <ele>773.845886</ele>
        <time>2019-07-12T07:31:33Z</time>
      </trkpt>
      <trkpt lat="45.54215" lon="4.49414">
        <ele>775.172485</ele>
        <time>2019-07-12T07:31:50Z</time>
      </trkpt>
      <trkpt lat="45.54093" lon="4.49297">
        <ele>777.20752</ele>
        <time>2019-07-12T07:32:18Z</time>
      </trkpt>
      <trkpt lat="45.54028" lon="4.49252">
        <ele>777.691223</ele>
        <time>2019-07-12T07:32:28Z</time>
      </trkpt>
      <trkpt lat="45.53902" lon="4.49138">
        <ele>775.960022</ele>
        <time>2019-07-12T07:32:36Z</time>
      </trkpt>
      <trkpt lat="45.5384" lon="4.49075">
        <ele>773.368774</ele>
        <time>2019-07-12T07:32:48Z</time>
      </trkpt>
      <trkpt lat="45.53733" lon="4.49005">
        <ele>765.200012</ele>
        <time>2019-07-12T07:33:05Z</time>
      </trkpt>
      <trkpt lat="45.53695" lon="4.4897">
        <ele>764.283386</ele>
        <time>2019-07-12T07:33:22Z</time>
      </trkpt>
      <trkpt lat="45.53672" lon="4.48935">
        <ele>764.332153</ele>
        <time>2019-07-12T07:33:24Z</time>
      </trkpt>
      <trkpt lat="45.53648" lon="4.48873">
        <ele>760.016724</ele>
        <time>2019-07-12T07:33:28Z</time>
      </trkpt>
      <trkpt lat="45.53591" lon="4.4881">
        <ele>756.410217</ele>
        <time>2019-07-12T07:33:39Z</time>
      </trkpt>
      <trkpt lat="45.5354" lon="4.48734">
        <ele>748.185669</ele>
        <time>2019-07-12T07:33:44Z</time>
      </trkpt>
      <trkpt lat="45.53533" lon="4.48737">
        <ele>747.432861</ele>
        <time>2019-07-12T07:33:54Z</time>
      </trkpt>
      <trkpt lat="45.5355" lon="4.48726">
        <ele>748.848633</ele>
        <time>2019-07-12T07:34:01Z</time>
      </trkpt>
      <trkpt lat="45.53583" lon="4.48679">
        <ele>745.897034</ele>
        <time>2019-07-12T07:34:04Z</time>
      </trkpt>
      <trkpt lat="45.53606" lon="4.4867">
        <ele>743.673645</ele>
        <time>2019-07-12T07:34:07Z</time>
      </trkpt>
      <trkpt lat="45.53648" lon="4.48674">
        <ele>741.667725</ele>
        <time>2019-07-12T07:34:22Z</time>
      </trkpt>
      <trkpt lat="45.53675" lon="4.48664">
        <ele>738.137878</ele>
        <time>2019-07-12T07:34:36Z</time>
      </trkpt>
      <trkpt lat="45.5368" lon="4.48647">
        <ele>735.141602</ele>
        <time>2019-07-12T07:34:42Z</time>
      </trkpt>
      <trkpt lat="45.53675" lon="4.48628">
        <ele>732.678345</ele>
        <time>2019-07-12T07:34:47Z</time>
      </trkpt>
      <trkpt lat="45.53623" lon="4.4857">
        <ele>730.052124</ele>
        <time>2019-07-12T07:34:55Z</time>
      </trkpt>
      <trkpt lat="45.53583" lon="4.48514">
        <ele>730.062195</ele>
        <time>2019-07-12T07:35:03Z</time>
      </trkpt>
      <trkpt lat="45.53575" lon="4.48475">
        <ele>728.279968</ele>
        <time>2019-07-12T07:35:16Z</time>
      </trkpt>
      <trkpt lat="45.53577" lon="4.48444">
        <ele>725.594971</ele>
        <time>2019-07-12T07:35:30Z</time>
      </trkpt>
      <trkpt lat="45.5357" lon="4.48398">
        <ele>723.56958</ele>
        <time>2019-07-12T07:35:44Z</time>
      </trkpt>
      <trkpt lat="45.53552" lon="4.48358">
        <ele>722.915344</ele>
        <time>2019-07-12T07:36:07Z</time>
      </trkpt>
      <trkpt lat="45.53513" lon="4.48296">
        <ele>721.994141</ele>
        <time>2019-07-12T07:36:27Z</time>
      </trkpt>
      <trkpt lat="45.53486" lon="4.48219">
        <ele>718.558716</ele>
        <time>2019-07-12T07:36:35Z</time>
      </trkpt>
      <trkpt lat="45.53465" lon="4.4814">
        <ele>713.4328</ele>
        <time>2019-07-12T07:36:47Z</time>
      </trkpt>
      <trkpt lat="45.53456" lon="4.48002">
        <ele>708.675842</ele>
        <time>2019-07-12T07:36:51Z</time>
      </trkpt>
      <trkpt lat="45.53462" lon="4.47878">
        <ele>703.657898</ele>
        <time>2019-07-12T07:36:54Z</time>
      </trkpt>
      <trkpt lat="45.53449" lon="4.47835">
        <ele>703.947815</ele>
        <time>2019-07-12T07:37:19Z</time>
      </trkpt>
      <trkpt lat="45.53405" lon="4.478">
        <ele>703.999634</ele>
        <time>2019-07-12T07:37:26Z</time>
      </trkpt>
      <trkpt lat="45.53394" lon="4.47777">
        <ele>700.136841</ele>
        <time>2019-07-12T07:37:34Z</time>
      </trkpt>
      <trkpt lat="45.53404" lon="4.47769">
        <ele>697.075928</ele>
        <time>2019-07-12T07:37:43Z</time>
      </trkpt>
      <trkpt lat="45.53511" lon="4.47787">
        <ele>694.258362</ele>
        <time>2019-07-12T07:37:53Z</time>
      </trkpt>
      <trkpt lat="45.53538" lon="4.47773">
        <ele>694.714844</ele>
        <time>2019-07-12T07:37:56Z</time>
      </trkpt>
      <trkpt lat="45.53556" lon="4.47732">
        <ele>695.357849</ele>
        <time>2019-07-12T07:38:27Z</time>
      </trkpt>
      <trkpt lat="45.53593" lon="4.47745">
        <ele>697.247192</ele>
        <time>2019-07-12T07:38:30Z</time>
      </trkpt>
      <trkpt lat="45.53636" lon="4.47742">
        <ele>698.044678</ele>
        <time>2019-07-12T07:38:36Z</time>
      </trkpt>
      <trkpt lat="45.53644" lon="4.47725">
        <ele>698.714661</ele>
        <time>2019-07-12T07:38:48Z</time>
      </trkpt>
      <trkpt lat="45.53581" lon="4.47559">
        <ele>714.453857</ele>
        <time>2019-07-12T07:38:50Z</time>
      </trkpt>
      <trkpt lat="45.53581" lon="4.47542">
        <ele>716.611572</ele>
        <time>2019-07-12T07:39:26Z</time>
      </trkpt>
      <trkpt lat="45.53598" lon="4.47509">
        <ele>721.953369</ele>
        <time>2019-07-12T07:39:36Z</time>
      </trkpt>
      <trkpt lat="45.53638" lon="4.47465">
        <ele>729.537659</ele>
        <time>2019-07-12T07:39:48Z</time>
      </trkpt>
      <trkpt lat="45.53636" lon="4.47455">
        <ele>730.944336</ele>
        <time>2019-07-12T07:39:50Z</time>
      </trkpt>
      <trkpt lat="45.53524" lon="4.47301">
        <ele>742.687134</ele>
        <time>2019-07-12T07:40:25Z</time>
      </trkpt>
      <trkpt lat="45.53503" lon="4.47252">
        <ele>748.131958</ele>
        <time>2019-07-12T07:40:33Z</time>
      </trkpt>
      <trkpt lat="45.53466" lon="4.47196">
        <ele>753.891235</ele>
        <time>2019-07-12T07:40:50Z</time>
      </trkpt>
      <trkpt lat="45.53468" lon="4.47184">
        <ele>754.874329</ele>
        <time>2019-07-12T07:41:07Z</time>
      </trkpt>
      <trkpt lat="45.53613" lon="4.47133">
        <ele>786.432983</ele>
        <time>2019-07-12T07:41:26Z</time>
      </trkpt>
      <trkpt lat="45.53645" lon="4.47136">
        <ele>792.836548</ele>
        <time>2019-07-12T07:41:30Z</time>
      </trkpt>
      <trkpt lat="45.53718" lon="4.47121">
        <ele>806.544128</ele>
        <time>2019-07-12T07:41:41Z</time>
      </trkpt>
      <trkpt lat="45.53788" lon="4.47082">
        <ele>820.31311</ele>
        <time>2019-07-12T07:41:51Z</time>
      </trkpt>
      <trkpt lat="45.5386" lon="4.47028">
        <ele>826.429749</ele>
        <time>2019-07-12T07:42:09Z</time>
      </trkpt>
      <trkpt lat="45.53875" lon="4.47032">
        <ele>827.176697</ele>
        <time>2019-07-12T07:42:18Z</time>
      </trkpt>
      <trkpt lat="45.53911" lon="4.47073">
        <ele>834.220642</ele>
        <time>2019-07-12T07:42:31Z</time>
      </trkpt>
      <trkpt lat="45.53955" lon="4.4709">
        <ele>840.359985</ele>
        <time>2019-07-12T07:42:40Z</time>
      </trkpt>
      <trkpt lat="45.5403" lon="4.47088">
        <ele>843.520752</ele>
        <time>2019-07-12T07:42:47Z</time>
      </trkpt>
      <trkpt lat="45.54068" lon="4.47066">
        <ele>845.901672</ele>
        <time>2019-07-12T07:43:22Z</time>
      </trkpt>
      <trkpt lat="45.54105" lon="4.47007">
        <ele>844.444763</ele>
        <time>2019-07-12T07:43:49Z</time>
      </trkpt>
      <trkpt lat="45.54135" lon="4.46975">
        <ele>842.909424</ele>
        <time>2019-07-12T07:43:54Z</time>
      </trkpt>
      <trkpt lat="45.54163" lon="4.46961">
        <ele>841.407776</ele>
        <time>2019-07-12T07:43:58Z</time>
      </trkpt>
      <trkpt lat="45.54311" lon="4.46952">
        <ele>834.308411</ele>
        <time>2019-07-12T07:44:12Z</time>
      </trkpt>
      <trkpt lat="45.54424" lon="4.46998">
        <ele>841.218384</ele>
        <time>2019-07-12T07:44:22Z</time>
      </trkpt>
      <trkpt lat="45.54444" lon="4.46994">
        <ele>842.956116</ele>
        <time>2019-07-12T07:44:37Z</time>
      </trkpt>
      <trkpt lat="45.54459" lon="4.4698">
        <ele>844.580872</ele>
        <time>2019-07-12T07:45:03Z</time>
      </trkpt>
      <trkpt lat="45.54484" lon="4.46905">
        <ele>848.632202</ele>
        <time>2019-07-12T07:45:16Z</time>
      </trkpt>
      <trkpt lat="45.54516" lon="4.46862">
        <ele>853.521423</ele>
        <time>2019-07-12T07:45:29Z</time>
      </trkpt>
      <trkpt lat="45.5453" lon="4.46773">
        <ele>853.099243</ele>
        <time>2019-07-12T07:45:43Z</time>
      </trkpt>
      <trkpt lat="45.54591" lon="4.46635">
        <ele>843.564636</ele>
        <time>2019-07-12T07:45:58Z</time>
      </trkpt>
      <trkpt lat="45.54624" lon="4.46573">
        <ele>837.955017</ele>
        <time>2019-07-12T07:46:11Z</time>
      </trkpt>
      <trkpt lat="45.54666" lon="4.46526">
        <ele>832.735168</ele>
        <time>2019-07-12T07:46:21Z</time>
      </trkpt>
      <trkpt lat="45.54702" lon="4.46454">
        <ele>828.169983</ele>
        <time>2019-07-12T07:46:54Z</time>
      </trkpt>
      <trkpt lat="45.54727" lon="4.46371">
        <ele>823.290405</ele>
        <time>2019-07-12T07:47:23Z</time>
      </trkpt>
      <trkpt lat="45.54758" lon="4.46301">
        <ele>817.169983</ele>
        <time>2019-07-12T07:47:35Z</time>
      </trkpt>
      <trkpt lat="45.54793" lon="4.46266">
        <ele>810.219421</ele>
        <time>2019-07-12T07:47:49Z</time>
      </trkpt>
      <trkpt lat="45.54923" lon="4.46187">
        <ele>793.841125</ele>
        <time>2019-07-12T07:48:02Z</time>
      </trkpt>
      <trkpt lat="45.55024" lon="4.46093">
        <ele>784.712097</ele>
        <time>2019-07-12T07:48:07Z</time>
      </trkpt>
      <trkpt lat="45.55074" lon="4.46072">
        <ele>780.358154</ele>
        <time>2019-07-12T07:48:20Z</time>
      </trkpt>
      <trkpt lat="45.55128" lon="4.4603">
        <ele>775.101624</ele>
        <time>2019-07-12T07:48:39Z</time>
      </trkpt>
      <trkpt lat="45.55171" lon="4.4598">
        <ele>769.897949</ele>
        <time>2019-07-12T07:48:46Z</time>
      </trkpt>
      <trkpt lat="45.5519" lon="4.45966">
        <ele>770.342651</ele>
        <time>2019-07-12T07:48:51Z</time>
      </trkpt>
      <trkpt lat="45.55243" lon="4.45947">
        <ele>770.118774</ele>
        <time>2019-07-12T07:49:04Z</time>
      </trkpt>
      <trkpt lat="45.55318" lon="4.45904">
        <ele>771.959534</ele>
        <time>2019-07-12T07:49:10Z</time>
      </trkpt>
      <trkpt lat="45.55343" lon="4.45875">
        <ele>770.605957</ele>
        <time>2019-07-12T07:49:17Z</time>
      </trkpt>
      <trkpt lat="45.55354" lon="4.4585">
        <ele>769.117493</ele>
        <time>2019-07-12T07:49:19Z</time>
      </trkpt>
      <trkpt lat="45.55371" lon="4.45773">
        <ele>760.767151</ele>
        <time>2019-07-12T07:49:31Z</time>
      </trkpt>
      <trkpt lat="45.5537" lon="4.45738">
        <ele>757.181335</ele>
        <time>2019-07-12T07:49:34Z</time>
      </trkpt>
      <trkpt lat="45.55362" lon="4.45698">
        <ele>754.655701</ele>
        <time>2019-07-12T07:49:42Z</time>
      </trkpt>
      <trkpt lat="45.55369" lon="4.4569">
        <ele>752.851807</ele>
        <time>2019-07-12T07:49:48Z</time>
      </trkpt>
      <trkpt lat="45.55415" lon="4.4572">
        <ele>747.961487</ele>
        <time>2019-07-12T07:50:11Z</time>
      </trkpt>
      <trkpt lat="45.55422" lon="4.4574">
        <ele>747.832886</ele>
        <time>2019-07-12T07:50:20Z</time>
      </trkpt>
      <trkpt lat="45.5545" lon="4.45767">
        <ele>745.784729</ele>
        <time>2019-07-12T07:50:24Z</time>
      </trkpt>
      <trkpt lat="45.55475" lon="4.45769">
        <ele>746.271484</ele>
        <time>2019-07-12T07:50:32Z</time>
      </trkpt>
      <trkpt lat="45.55565" lon="4.45831">
        <ele>752.408203</ele>
        <time>2019-07-12T07:51:01Z</time>
      </trkpt>
      <trkpt lat="45.55593" lon="4.45868">
        <ele>757.701233</ele>
        <time>2019-07-12T07:51:05Z</time>
      </trkpt>
      <trkpt lat="45.55601" lon="4.45888">
        <ele>760.577454</ele>
        <time>2019-07-12T07:51:17Z</time>
      </trkpt>
      <trkpt lat="45.55626" lon="4.45917">
        <ele>762.87738</ele>
        <time>2019-07-12T07:51:35Z</time>
      </trkpt>
      <trkpt lat="45.55711" lon="4.46049">
        <ele>773.199585</ele>
        <time>2019-07-12T07:51:43Z</time>
      </trkpt>
      <trkpt lat="45.55717" lon="4.46071">
        <ele>776.838684</ele>
        <time>2019-07-12T07:51:53Z</time>
      </trkpt>
      <trkpt lat="45.55751" lon="4.46126">
        <ele>784.688049</ele>
        <time>2019-07-12T07:52:03Z</time>
      </trkpt>
      <trkpt lat="45.55814" lon="4.4619">
        <ele>783.687439</ele>
        <time>2019-07-12T07:52:15Z</time>
      </trkpt>
      <trkpt lat="45.55844" lon="4.46212">
        <ele>780.65625</ele>
        <time>2019-07-12T07:52:28Z</time>
      </trkpt>
      <trkpt lat="45.55874" lon="4.46258">
        <ele>784.901611</ele>
        <time>2019-07-12T07:52:31Z</time>
      </trkpt>
      <trkpt lat="45.55911" lon="4.46289">
        <ele>789.330383</ele>
        <time>2019-07-12T07:52:34Z</time>
      </trkpt>
      <trkpt lat="45.55959" lon="4.46316">
        <ele>791.123474</ele>
        <time>2019-07-12T07:52:44Z</time>
      </trkpt>
      <trkpt lat="45.55998" lon="4.46374">
        <ele>791.747498</ele>
        <time>2019-07-12T07:52:54Z</time>
      </trkpt>
      <trkpt lat="45.56001" lon="4.46389">
        <ele>792.402527</ele>
        <time>2019-07-12T07:52:57Z</time>
      </trkpt>
      <trkpt lat="45.55994" lon="4.46404">
        <ele>794.502502</ele>
        <time>2019-07-12T07:53:12Z</time>
      </trkpt>
      <trkpt lat="45.55957" lon="4.46435">
        <ele>800.408752</ele>
        <time>2019-07-12T07:53:30Z</time>
      </trkpt>
      <trkpt lat="45.55938" lon="4.46492">
        <ele>804.316833</ele>
        <time>2019-07-12T07:53:57Z</time>
      </trkpt>
      <trkpt lat="45.5594" lon="4.46511">
        <ele>804.79126</ele>
        <time>2019-07-12T07:54:06Z</time>
      </trkpt>
      <trkpt lat="45.55994" lon="4.46555">
        <ele>802.399048</ele>
        <time>2019-07-12T07:54:31Z</time>
      </trkpt>
      <trkpt lat="45.56068" lon="4.46583">
        <ele>798.44104</ele>
        <time>2019-07-12T07:54:44Z</time>
      </trkpt>
      <trkpt lat="45.56185" lon="4.46565">
        <ele>795.128723</ele>
        <time>2019-07-12T07:55:11Z</time>
      </trkpt>
      <trkpt lat="45.56225" lon="4.46571">
        <ele>794.003723</ele>
        <time>2019-07-12T07:55:13Z</time>
      </trkpt>
      <trkpt lat="45.56331" lon="4.46559">
        <ele>776.294983</ele>
        <time>2019-07-12T07:55:29Z</time>
      </trkpt>
      <trkpt lat="45.56385" lon="4.4657">
        <ele>765.287964</ele>
        <time>2019-07-12T07:55:38Z</time>
      </trkpt>
      <trkpt lat="45.56494" lon="4.4663">
        <ele>746.262512</ele>
        <time>2019-07-12T07:55:40Z</time>
      </trkpt>
      <trkpt lat="45.565" lon="4.46622">
        <ele>744.059998</ele>
        <time>2019-07-12T07:55:54Z</time>
      </trkpt>
      <trkpt lat="45.56497" lon="4.46523">
        <ele>731.445007</ele>
        <time>2019-07-12T07:55:56Z</time>
      </trkpt>
      <trkpt lat="45.56489" lon="4.46471">
        <ele>724.59375</ele>
        <time>2019-07-12T07:56:01Z</time>
      </trkpt>
      <trkpt lat="45.56493" lon="4.46459">
        <ele>721.10376</ele>
        <time>2019-07-12T07:56:08Z</time>
      </trkpt>
      <trkpt lat="45.56549" lon="4.46476">
        <ele>707.955261</ele>
        <time>2019-07-12T07:56:09Z</time>
      </trkpt>
      <trkpt lat="45.56555" lon="4.46461">
        <ele>703.76178</ele>
        <time>2019-07-12T07:56:17Z</time>
      </trkpt>
      <trkpt lat="45.5655" lon="4.46436">
        <ele>701.168762</ele>
        <time>2019-07-12T07:56:33Z</time>
      </trkpt>
      <trkpt lat="45.56534" lon="4.46401">
        <ele>699.676392</ele>
        <time>2019-07-12T07:56:36Z</time>
      </trkpt>
      <trkpt lat="45.5654" lon="4.46393">
        <ele>697.231995</ele>
        <time>2019-07-12T07:56:44Z</time>
      </trkpt>
      <trkpt lat="45.56574" lon="4.46397">
        <ele>692.408325</ele>
        <time>2019-07-12T07:56:57Z</time>
      </trkpt>
      <trkpt lat="45.56627" lon="4.46342">
        <ele>695.122009</ele>
        <time>2019-07-12T07:57:06Z</time>
      </trkpt>
      <trkpt lat="45.5664" lon="4.46343">
        <ele>696.017029</ele>
        <time>2019-07-12T07:57:13Z</time>
      </trkpt>
      <trkpt lat="45.56669" lon="4.46366">
        <ele>696.496399</ele>
        <time>2019-07-12T07:57:19Z</time>
      </trkpt>
      <trkpt lat="45.56728" lon="4.46367">
        <ele>704.494995</ele>
        <time>2019-07-12T07:57:30Z</time>
      </trkpt>
      <trkpt lat="45.56761" lon="4.46387">
        <ele>708.776978</ele>
        <time>2019-07-12T07:57:48Z</time>
      </trkpt>
      <trkpt lat="45.56791" lon="4.46383">
        <ele>715.67157</ele>
        <time>2019-07-12T07:58:17Z</time>
      </trkpt>
      <trkpt lat="45.56794" lon="4.46419">
        <ele>711.253479</ele>
        <time>2019-07-12T07:58:27Z</time>
      </trkpt>
      <trkpt lat="45.56816" lon="4.46484">
        <ele>704.621277</ele>
        <time>2019-07-12T07:58:34Z</time>
      </trkpt>
      <trkpt lat="45.56836" lon="4.46589">
        <ele>695.676819</ele>
        <time>2019-07-12T07:58:47Z</time>
      </trkpt>
      <trkpt lat="45.56886" lon="4.46752">
        <ele>682.422913</ele>
        <time>2019-07-12T07:58:55Z</time>
      </trkpt>
      <trkpt lat="45.56913" lon="4.46799">
        <ele>677.957458</ele>
        <time>2019-07-12T07:59:02Z</time>
      </trkpt>
      <trkpt lat="45.56939" lon="4.46809">
        <ele>676.123779</ele>
        <time>2019-07-12T07:59:10Z</time>
      </trkpt>
      <trkpt lat="45.56998" lon="4.4681">
        <ele>673.769409</ele>
        <time>2019-07-12T07:59:22Z</time>
      </trkpt>
      <trkpt lat="45.5703" lon="4.46791">
        <ele>673.929443</ele>
        <time>2019-07-12T07:59:24Z</time>
      </trkpt>
      <trkpt lat="45.5705" lon="4.4676">
        <ele>675.168762</ele>
        <time>2019-07-12T07:59:42Z</time>
      </trkpt>
      <trkpt lat="45.57064" lon="4.4672">
        <ele>679.500793</ele>
        <time>2019-07-12T07:59:58Z</time>
      </trkpt>
      <trkpt lat="45.57103" lon="4.46671">
        <ele>683.399475</ele>
        <time>2019-07-12T08:00:20Z</time>
      </trkpt>
      <trkpt lat="45.57106" lon="4.46658">
        <ele>685.382507</ele>
        <time>2019-07-12T08:00:27Z</time>
      </trkpt>
      <trkpt lat="45.57161" lon="4.46581">
        <ele>689.059814</ele>
        <time>2019-07-12T08:00:42Z</time>
      </trkpt>
      <trkpt lat="45.57185" lon="4.4649">
        <ele>698.937683</ele>
        <time>2019-07-12T08:00:52Z</time>
      </trkpt>
      <trkpt lat="45.57256" lon="4.46398">
        <ele>701.929749</ele>
        <time>2019-07-12T08:00:57Z</time>
      </trkpt>
      <trkpt lat="45.57287" lon="4.46399">
        <ele>700.15332</ele>
        <time>2019-07-12T08:01:14Z</time>
      </trkpt>
      <trkpt lat="45.57338" lon="4.46448">
        <ele>686.193848</ele>
        <time>2019-07-12T08:01:20Z</time>
      </trkpt>
      <trkpt lat="45.57379" lon="4.46462">
        <ele>681.409973</ele>
        <time>2019-07-12T08:01:38Z</time>
      </trkpt>
      <trkpt lat="45.57397" lon="4.46478">
        <ele>678.544983</ele>
        <time>2019-07-12T08:01:45Z</time>
      </trkpt>
      <trkpt lat="45.57436" lon="4.46568">
        <ele>664.345642</ele>
        <time>2019-07-12T08:01:52Z</time>
      </trkpt>
      <trkpt lat="45.57459" lon="4.46586">
        <ele>660.949097</ele>
        <time>2019-07-12T08:02:00Z</time>
      </trkpt>
      <trkpt lat="45.57532" lon="4.46619">
        <ele>659.893188</ele>
        <time>2019-07-12T08:02:13Z</time>
      </trkpt>
      <trkpt lat="45.57563" lon="4.46625">
        <ele>659.41217</ele>
        <time>2019-07-12T08:02:18Z</time>
      </trkpt>
      <trkpt lat="45.5759" lon="4.4662">
        <ele>659.624878</ele>
        <time>2019-07-12T08:02:27Z</time>
      </trkpt>
      <trkpt lat="45.57622" lon="4.46602">
        <ele>659.213989</ele>
        <time>2019-07-12T08:02:33Z</time>
      </trkpt>
      <trkpt lat="45.57667" lon="4.4655">
        <ele>659.537292</ele>
        <time>2019-07-12T08:02:45Z</time>
      </trkpt>
      <trkpt lat="45.57677" lon="4.46523">
        <ele>657.502502</ele>
        <time>2019-07-12T08:02:48Z</time>
      </trkpt>
      <trkpt lat="45.57704" lon="4.46481">
        <ele>658.536011</ele>
        <time>2019-07-12T08:02:54Z</time>
      </trkpt>
      <trkpt lat="45.57724" lon="4.46466">
        <ele>659.655273</ele>
        <time>2019-07-12T08:02:57Z</time>
      </trkpt>
      <trkpt lat="45.57776" lon="4.46467">
        <ele>663.511353</ele>
        <time>2019-07-12T08:03:09Z</time>
      </trkpt>
      <trkpt lat="45.57788" lon="4.46478">
        <ele>666.047302</ele>
        <time>2019-07-12T08:03:13Z</time>
      </trkpt>
      <trkpt lat="45.578" lon="4.46507">
        <ele>667.718506</ele>
        <time>2019-07-12T08:03:21Z</time>
      </trkpt>
      <trkpt lat="45.57814" lon="4.46512">
        <ele>669.354248</ele>
        <time>2019-07-12T08:03:28Z</time>
      </trkpt>
      <trkpt lat="45.57804" lon="4.46441">
        <ele>675.018372</ele>
        <time>2019-07-12T08:03:31Z</time>
      </trkpt>
      <trkpt lat="45.57792" lon="4.4642">
        <ele>676.528198</ele>
        <time>2019-07-12T08:03:54Z</time>
      </trkpt>
      <trkpt lat="45.57766" lon="4.46391">
        <ele>676.245544</ele>
        <time>2019-07-12T08:03:56Z</time>
      </trkpt>
      <trkpt lat="45.57766" lon="4.46349">
        <ele>679.812561</ele>
        <time>2019-07-12T08:04:09Z</time>
      </trkpt>
      <trkpt lat="45.57777" lon="4.46336">
        <ele>683.559998</ele>
        <time>2019-07-12T08:04:11Z</time>
      </trkpt>
      <trkpt lat="45.57873" lon="4.46303">
        <ele>700.94989</ele>
        <time>2019-07-12T08:04:19Z</time>
      </trkpt>
      <trkpt lat="45.57879" lon="4.46309">
        <ele>702.526917</ele>
        <time>2019-07-12T08:04:21Z</time>
      </trkpt>
      <trkpt lat="45.57905" lon="4.46376">
        <ele>710.540833</ele>
        <time>2019-07-12T08:04:28Z</time>
      </trkpt>
      <trkpt lat="45.57914" lon="4.46374">
        <ele>712.8078</ele>
        <time>2019-07-12T08:04:39Z</time>
      </trkpt>
      <trkpt lat="45.57939" lon="4.46338">
        <ele>716.47583</ele>
        <time>2019-07-12T08:05:06Z</time>
      </trkpt>
      <trkpt lat="45.57947" lon="4.46334">
        <ele>717.637085</ele>
        <time>2019-07-12T08:05:16Z</time>
      </trkpt>
      <trkpt lat="45.57977" lon="4.46341">
        <ele>723.54425</ele>
        <time>2019-07-12T08:05:29Z</time>
      </trkpt>
      <trkpt lat="45.58025" lon="4.46331">
        <ele>728.724976</ele>
        <time>2019-07-12T08:05:46Z</time>
      </trkpt>
      <trkpt lat="45.58137" lon="4.46365">
        <ele>741.117493</ele>
        <time>2019-07-12T08:06:16Z</time>
      </trkpt>
      <trkpt lat="45.58176" lon="4.46385">
        <ele>745.363403</ele>
        <time>2019-07-12T08:06:33Z</time>
      </trkpt>
      <trkpt lat="45.58226" lon="4.46425">
        <ele>752.202515</ele>
        <time>2019-07-12T08:06:37Z</time>
      </trkpt>
      <trkpt lat="45.583" lon="4.46419">
        <ele>762.532471</ele>
        <time>2019-07-12T08:06:51Z</time>
      </trkpt>
      <trkpt lat="45.58424" lon="4.46461">
        <ele>773.257935</ele>
        <time>2019-07-12T08:07:06Z</time>
      </trkpt>
      <trkpt lat="45.58491" lon="4.46495">
        <ele>773.094971</ele>
        <time>2019-07-12T08:07:09Z</time>
      </trkpt>
      <trkpt lat="45.58505" lon="4.46513">
        <ele>774.219727</ele>
        <time>2019-07-12T08:07:19Z</time>
      </trkpt>
      <trkpt lat="45.58538" lon="4.46583">
        <ele>778.631348</ele>
        <time>2019-07-12T08:07:23Z</time>
      </trkpt>
      <trkpt lat="45.58595" lon="4.4662">
        <ele>781.478394</ele>
        <time>2019-07-12T08:07:31Z</time>
      </trkpt>
      <trkpt lat="45.58605" lon="4.46636">
        <ele>782.330017</ele>
        <time>2019-07-12T08:07:35Z</time>
      </trkpt>
      <trkpt lat="45.58604" lon="4.46695">
        <ele>785.046631</ele>
        <time>2019-07-12T08:07:43Z</time>
      </trkpt>
      <trkpt lat="45.58597" lon="4.46721">
        <ele>785.722534</ele>
        <time>2019-07-12T08:07:51Z</time>
      </trkpt>
      <trkpt lat="45.58575" lon="4.46759">
        <ele>787.072266</ele>
        <time>2019-07-12T08:07:58Z</time>
      </trkpt>
      <trkpt lat="45.58582" lon="4.46776">
        <ele>786.005005</ele>
        <time>2019-07-12T08:08:15Z</time>
      </trkpt>
      <trkpt lat="45.58616" lon="4.46793">
        <ele>784.077209</ele>
        <time>2019-07-12T08:08:23Z</time>
      </trkpt>
      <trkpt lat="45.58649" lon="4.46797">
        <ele>782.187073</ele>
        <time>2019-07-12T08:08:43Z</time>
      </trkpt>
      <trkpt lat="45.5868" lon="4.46791">
        <ele>780.770203</ele>
        <time>2019-07-12T08:08:59Z</time>
      </trkpt>
      <trkpt lat="45.5875" lon="4.46757">
        <ele>778.909729</ele>
        <time>2019-07-12T08:09:26Z</time>
      </trkpt>
      <trkpt lat="45.58783" lon="4.46759">
        <ele>775.4375</ele>
        <time>2019-07-12T08:09:31Z</time>
      </trkpt>
      <trkpt lat="45.58864" lon="4.46796">
        <ele>766.412231</ele>
        <time>2019-07-12T08:09:42Z</time>
      </trkpt>
      <trkpt lat="45.58927" lon="4.4684">
        <ele>765.048401</ele>
        <time>2019-07-12T08:09:50Z</time>
      </trkpt>
      <trkpt lat="45.59042" lon="4.46849">
        <ele>760.543152</ele>
        <time>2019-07-12T08:09:56Z</time>
      </trkpt>
      <trkpt lat="45.59059" lon="4.46862">
        <ele>759.775757</ele>
        <time>2019-07-12T08:10:09Z</time>
      </trkpt>
      <trkpt lat="45.59091" lon="4.46914">
        <ele>758.554504</ele>
        <time>2019-07-12T08:10:22Z</time>
      </trkpt>
      <trkpt lat="45.59121" lon="4.46937">
        <ele>756.056763</ele>
        <time>2019-07-12T08:10:32Z</time>
      </trkpt>
      <trkpt lat="45.59141" lon="4.46964">
        <ele>754.182739</ele>
        <time>2019-07-12T08:10:35Z</time>
      </trkpt>
      <trkpt lat="45.59166" lon="4.4703">
        <ele>751.301514</ele>
        <time>2019-07-12T08:10:47Z</time>
      </trkpt>
      <trkpt lat="45.59205" lon="4.47089">
        <ele>744.493713</ele>
        <time>2019-07-12T08:10:51Z</time>
      </trkpt>
      <trkpt lat="45.59244" lon="4.47114">
        <ele>742.311829</ele>
        <time>2019-07-12T08:11:03Z</time>
      </trkpt>
      <trkpt lat="45.59255" lon="4.47128">
        <ele>741.511353</ele>
        <time>2019-07-12T08:11:06Z</time>
      </trkpt>
      <trkpt lat="45.59253" lon="4.47202">
        <ele>734.477478</ele>
        <time>2019-07-12T08:11:17Z</time>
      </trkpt>
      <trkpt lat="45.59242" lon="4.4722">
        <ele>731.122559</ele>
        <time>2019-07-12T08:11:36Z</time>
      </trkpt>
      <trkpt lat="45.59195" lon="4.47243">
        <ele>724.328796</ele>
        <time>2019-07-12T08:11:49Z</time>
      </trkpt>
      <trkpt lat="45.59187" lon="4.47255">
        <ele>723.017273</ele>
        <time>2019-07-12T08:11:55Z</time>
      </trkpt>
      <trkpt lat="45.59226" lon="4.47291">
        <ele>718.622437</ele>
        <time>2019-07-12T08:12:03Z</time>
      </trkpt>
      <trkpt lat="45.59304" lon="4.47336">
        <ele>711.53064</ele>
        <time>2019-07-12T08:12:15Z</time>
      </trkpt>
      <trkpt lat="45.59356" lon="4.47351">
        <ele>705.242798</ele>
        <time>2019-07-12T08:12:29Z</time>
      </trkpt>
      <trkpt lat="45.59385" lon="4.4735">
        <ele>701.743225</ele>
        <time>2019-07-12T08:12:45Z</time>
      </trkpt>
      <trkpt lat="45.59416" lon="4.47335">
        <ele>698.772034</ele>
        <time>2019-07-12T08:12:52Z</time>
      </trkpt>
      <trkpt lat="45.59459" lon="4.47297">
        <ele>696.082031</ele>
        <time>2019-07-12T08:12:58Z</time>
      </trkpt>
      <trkpt lat="45.59516" lon="4.47265">
        <ele>688.476868</ele>
        <time>2019-07-12T08:13:05Z</time>
      </trkpt>
      <trkpt lat="45.59583" lon="4.47242">
        <ele>680.352844</ele>
        <time>2019-07-12T08:13:13Z</time>
      </trkpt>
      <trkpt lat="45.59612" lon="4.47225">
        <ele>678.108521</ele>
        <time>2019-07-12T08:13:20Z</time>
      </trkpt>
      <trkpt lat="45.59628" lon="4.47204">
        <ele>678.181519</ele>
        <time>2019-07-12T08:13:25Z</time>
      </trkpt>
      <trkpt lat="45.59643" lon="4.47164">
        <ele>680.140625</ele>
        <time>2019-07-12T08:13:44Z</time>
      </trkpt>
      <trkpt lat="45.59651" lon="4.47118">
        <ele>683.474976</ele>
        <time>2019-07-12T08:13:45Z</time>
      </trkpt>
      <trkpt lat="45.59652" lon="4.47076">
        <ele>683.424988</ele>
        <time>2019-07-12T08:13:50Z</time>
      </trkpt>
      <trkpt lat="45.59646" lon="4.47045">
        <ele>684.439453</ele>
        <time>2019-07-12T08:13:53Z</time>
      </trkpt>
      <trkpt lat="45.596" lon="4.46947">
        <ele>686.557922</ele>
        <time>2019-07-12T08:14:00Z</time>
      </trkpt>
      <trkpt lat="45.59595" lon="4.46948">
        <ele>687.408813</ele>
        <time>2019-07-12T08:14:07Z</time>
      </trkpt>
      <trkpt lat="45.59614" lon="4.46944">
        <ele>684.11731</ele>
        <time>2019-07-12T08:14:10Z</time>
      </trkpt>
      <trkpt lat="45.59624" lon="4.46931">
        <ele>681.559326</ele>
        <time>2019-07-12T08:14:21Z</time>
      </trkpt>
      <trkpt lat="45.59637" lon="4.46894">
        <ele>677.442505</ele>
        <time>2019-07-12T08:14:30Z</time>
      </trkpt>
      <trkpt lat="45.59662" lon="4.46865">
        <ele>671.293335</ele>
        <time>2019-07-12T08:14:44Z</time>
      </trkpt>
      <trkpt lat="45.59662" lon="4.46849">
        <ele>669.952515</ele>
        <time>2019-07-12T08:14:49Z</time>
      </trkpt>
      <trkpt lat="45.59636" lon="4.46795">
        <ele>670.982605</ele>
        <time>2019-07-12T08:14:58Z</time>
      </trkpt>
      <trkpt lat="45.59643" lon="4.46739">
        <ele>663.420593</ele>
        <time>2019-07-12T08:15:05Z</time>
      </trkpt>
      <trkpt lat="45.59635" lon="4.46651">
        <ele>663.231018</ele>
        <time>2019-07-12T08:15:12Z</time>
      </trkpt>
      <trkpt lat="45.59641" lon="4.46627">
        <ele>664.908569</ele>
        <time>2019-07-12T08:15:16Z</time>
      </trkpt>
      <trkpt lat="45.59667" lon="4.46582">
        <ele>664.368347</ele>
        <time>2019-07-12T08:15:24Z</time>
      </trkpt>
      <trkpt lat="45.59692" lon="4.46556">
        <ele>661.26001</ele>
        <time>2019-07-12T08:15:36Z</time>
      </trkpt>
      <trkpt lat="45.59707" lon="4.46524">
        <ele>660.735291</ele>
        <time>2019-07-12T08:15:49Z</time>
      </trkpt>
      <trkpt lat="45.59711" lon="4.46495">
        <ele>660.408325</ele>
        <time>2019-07-12T08:16:17Z</time>
      </trkpt>
      <trkpt lat="45.59738" lon="4.4647">
        <ele>652.167053</ele>
        <time>2019-07-12T08:16:23Z</time>
      </trkpt>
      <trkpt lat="45.5976" lon="4.46404">
        <ele>650.400452</ele>
        <time>2019-07-12T08:16:29Z</time>
      </trkpt>
      <trkpt lat="45.598" lon="4.46348">
        <ele>650.404053</ele>
        <time>2019-07-12T08:16:31Z</time>
      </trkpt>
      <trkpt lat="45.59902" lon="4.46258">
        <ele>633.805176</ele>
        <time>2019-07-12T08:16:34Z</time>
      </trkpt>
      <trkpt lat="45.59918" lon="4.4623">
        <ele>630.133667</ele>
        <time>2019-07-12T08:16:41Z</time>
      </trkpt>
      <trkpt lat="45.59929" lon="4.46197">
        <ele>620.931152</ele>
        <time>2019-07-12T08:16:47Z</time>
      </trkpt>
      <trkpt lat="45.59929" lon="4.46181">
        <ele>618.935669</ele>
        <time>2019-07-12T08:16:59Z</time>
      </trkpt>
      <trkpt lat="45.59942" lon="4.46179">
        <ele>615.374329</ele>
        <time>2019-07-12T08:17:08Z</time>
      </trkpt>
      <trkpt lat="45.59958" lon="4.46212">
        <ele>608.969055</ele>
        <time>2019-07-12T08:17:15Z</time>
      </trkpt>
      <trkpt lat="45.59959" lon="4.46246">
        <ele>607.349976</ele>
        <time>2019-07-12T08:17:29Z</time>
      </trkpt>
      <trkpt lat="45.59942" lon="4.46321">
        <ele>602.01593</ele>
        <time>2019-07-12T08:17:54Z</time>
      </trkpt>
      <trkpt lat="45.59936" lon="4.46371">
        <ele>593.484253</ele>
        <time>2019-07-12T08:18:06Z</time>
      </trkpt>
      <trkpt lat="45.59962" lon="4.46352">
        <ele>588.845276</ele>
        <time>2019-07-12T08:18:24Z</time>
      </trkpt>
      <trkpt lat="45.60009" lon="4.46293">
        <ele>573.020325</ele>
        <time>2019-07-12T08:18:41Z</time>
      </trkpt>
      <trkpt lat="45.60062" lon="4.46158">
        <ele>560.441772</ele>
        <time>2019-07-12T08:18:45Z</time>
      </trkpt>
      <trkpt lat="45.6007" lon="4.46091">
        <ele>554.393921</ele>
        <time>2019-07-12T08:19:03Z</time>
      </trkpt>
      <trkpt lat="45.60147" lon="4.46072">
        <ele>553.702271</ele>
        <time>2019-07-12T08:19:14Z</time>
      </trkpt>
      <trkpt lat="45.60215" lon="4.46103">
        <ele>561.397461</ele>
        <time>2019-07-12T08:19:23Z</time>
      </trkpt>
      <trkpt lat="45.60228" lon="4.46119">
        <ele>564.66217</ele>
        <time>2019-07-12T08:19:36Z</time>
      </trkpt>
      <trkpt lat="45.60304" lon="4.46087">
        <ele>571.93689</ele>
        <time>2019-07-12T08:19:56Z</time>
      </trkpt>
      <trkpt lat="45.60345" lon="4.4606">
        <ele>575.189392</ele>
        <time>2019-07-12T08:20:05Z</time>
      </trkpt>
      <trkpt lat="45.60383" lon="4.46047">
        <ele>574.946655</ele>
        <time>2019-07-12T08:20:19Z</time>
      </trkpt>
      <trkpt lat="45.6044" lon="4.46055">
        <ele>573.54071</ele>
        <time>2019-07-12T08:20:27Z</time>
      </trkpt>
      <trkpt lat="45.60525" lon="4.46039">
        <ele>563.812805</ele>
        <time>2019-07-12T08:20:31Z</time>
      </trkpt>
      <trkpt lat="45.60562" lon="4.46056">
        <ele>566.967529</ele>
        <time>2019-07-12T08:20:42Z</time>
      </trkpt>
      <trkpt lat="45.60622" lon="4.46043">
        <ele>563.119812</ele>
        <time>2019-07-12T08:21:01Z</time>
      </trkpt>
      <trkpt lat="45.60643" lon="4.46009">
        <ele>559.301331</ele>
        <time>2019-07-12T08:21:10Z</time>
      </trkpt>
      <trkpt lat="45.60649" lon="4.45986">
        <ele>555.794983</ele>
        <time>2019-07-12T08:21:31Z</time>
      </trkpt>
      <trkpt lat="45.6068" lon="4.45933">
        <ele>549.335815</ele>
        <time>2019-07-12T08:21:54Z</time>
      </trkpt>
      <trkpt lat="45.60754" lon="4.45882">
        <ele>547.273804</ele>
        <time>2019-07-12T08:22:17Z</time>
      </trkpt>
      <trkpt lat="45.60791" lon="4.45879">
        <ele>544.588745</ele>
        <time>2019-07-12T08:22:36Z</time>
      </trkpt>
      <trkpt lat="45.60882" lon="4.45903">
        <ele>532.702515</ele>
        <time>2019-07-12T08:22:51Z</time>
      </trkpt>
      <trkpt lat="45.60977" lon="4.45905">
        <ele>523.264282</ele>
        <time>2019-07-12T08:23:00Z</time>
      </trkpt>
      <trkpt lat="45.61073" lon="4.45863">
        <ele>524.610535</ele>
        <time>2019-07-12T08:23:05Z</time>
      </trkpt>
      <trkpt lat="45.6115" lon="4.45888">
        <ele>533.215271</ele>
        <time>2019-07-12T08:23:14Z</time>
      </trkpt>
      <trkpt lat="45.61214" lon="4.45903">
        <ele>540.121704</ele>
        <time>2019-07-12T08:23:32Z</time>
      </trkpt>
      <trkpt lat="45.6125" lon="4.45925">
        <ele>542.710022</ele>
        <time>2019-07-12T08:23:47Z</time>
      </trkpt>
      <trkpt lat="45.61268" lon="4.45944">
        <ele>541.626648</ele>
        <time>2019-07-12T08:23:50Z</time>
      </trkpt>
      <trkpt lat="45.61292" lon="4.45989">
        <ele>541.351257</ele>
        <time>2019-07-12T08:23:54Z</time>
      </trkpt>
      <trkpt lat="45.61356" lon="4.46042">
        <ele>535.885498</ele>
        <time>2019-07-12T08:23:59Z</time>
      </trkpt>
      <trkpt lat="45.61406" lon="4.46102">
        <ele>536.080627</ele>
        <time>2019-07-12T08:24:07Z</time>
      </trkpt>
      <trkpt lat="45.61419" lon="4.46094">
        <ele>535.353394</ele>
        <time>2019-07-12T08:24:10Z</time>
      </trkpt>
      <trkpt lat="45.61429" lon="4.46077">
        <ele>535.683777</ele>
        <time>2019-07-12T08:24:12Z</time>
      </trkpt>
      <trkpt lat="45.61436" lon="4.46046">
        <ele>538.308777</ele>
        <time>2019-07-12T08:24:41Z</time>
      </trkpt>
      <trkpt lat="45.61456" lon="4.46004">
        <ele>544.924988</ele>
        <time>2019-07-12T08:24:51Z</time>
      </trkpt>
      <trkpt lat="45.61465" lon="4.46001">
        <ele>547.887512</ele>
        <time>2019-07-12T08:24:58Z</time>
      </trkpt>
      <trkpt lat="45.61474" lon="4.46008">
        <ele>550.924988</ele>
        <time>2019-07-12T08:25:00Z</time>
      </trkpt>
      <trkpt lat="45.61514" lon="4.46176">
        <ele>557.958313</ele>
        <time>2019-07-12T08:25:18Z</time>
      </trkpt>
      <trkpt lat="45.61538" lon="4.46229">
        <ele>562.639343</ele>
        <time>2019-07-12T08:25:27Z</time>
      </trkpt>
      <trkpt lat="45.61559" lon="4.4626">
        <ele>570.272522</ele>
        <time>2019-07-12T08:25:33Z</time>
      </trkpt>
      <trkpt lat="45.61566" lon="4.46259">
        <ele>572.017639</ele>
        <time>2019-07-12T08:25:41Z</time>
      </trkpt>
      <trkpt lat="45.61618" lon="4.46179">
        <ele>584.534973</ele>
        <time>2019-07-12T08:25:44Z</time>
      </trkpt>
      <trkpt lat="45.61653" lon="4.4616">
        <ele>591.085571</ele>
        <time>2019-07-12T08:25:59Z</time>
      </trkpt>
      <trkpt lat="45.61679" lon="4.46164">
        <ele>593.757507</ele>
        <time>2019-07-12T08:26:03Z</time>
      </trkpt>
      <trkpt lat="45.61711" lon="4.46181">
        <ele>595.38324</ele>
        <time>2019-07-12T08:26:06Z</time>
      </trkpt>
      <trkpt lat="45.61727" lon="4.4618">
        <ele>596.269531</ele>
        <time>2019-07-12T08:26:19Z</time>
      </trkpt>
      <trkpt lat="45.6178" lon="4.46129">
        <ele>603.657349</ele>
        <time>2019-07-12T08:26:27Z</time>
      </trkpt>
      <trkpt lat="45.61794" lon="4.46125">
        <ele>604.639099</ele>
        <time>2019-07-12T08:27:00Z</time>
      </trkpt>
      <trkpt lat="45.618" lon="4.46144">
        <ele>604.457031</ele>
        <time>2019-07-12T08:27:08Z</time>
      </trkpt>
      <trkpt lat="45.61778" lon="4.46214">
        <ele>602.94104</ele>
        <time>2019-07-12T08:27:13Z</time>
      </trkpt>
      <trkpt lat="45.61757" lon="4.46256">
        <ele>602.562439</ele>
        <time>2019-07-12T08:27:27Z</time>
      </trkpt>
      <trkpt lat="45.61659" lon="4.46398">
        <ele>599.40509</ele>
        <time>2019-07-12T08:27:41Z</time>
      </trkpt>
      <trkpt lat="45.61643" lon="4.46446">
        <ele>598.87561</ele>
        <time>2019-07-12T08:27:58Z</time>
      </trkpt>
      <trkpt lat="45.6164" lon="4.46475">
        <ele>599.223145</ele>
        <time>2019-07-12T08:28:42Z</time>
      </trkpt>
      <trkpt lat="45.6165" lon="4.46561">
        <ele>603.342346</ele>
        <time>2019-07-12T08:28:54Z</time>
      </trkpt>
      <trkpt lat="45.61674" lon="4.46637">
        <ele>608.65564</ele>
        <time>2019-07-12T08:29:11Z</time>
      </trkpt>
      <trkpt lat="45.61666" lon="4.46743">
        <ele>609.976318</ele>
        <time>2019-07-12T08:29:13Z</time>
      </trkpt>
      <trkpt lat="45.61553" lon="4.46959">
        <ele>610.763855</ele>
        <time>2019-07-12T08:29:17Z</time>
      </trkpt>
      <trkpt lat="45.61517" lon="4.4701">
        <ele>611.852356</ele>
        <time>2019-07-12T08:29:27Z</time>
      </trkpt>
      <trkpt lat="45.61445" lon="4.47008">
        <ele>607.069702</ele>
        <time>2019-07-12T08:29:48Z</time>
      </trkpt>
      <trkpt lat="45.61439" lon="4.47019">
        <ele>608.914124</ele>
        <time>2019-07-12T08:29:54Z</time>
      </trkpt>
      <trkpt lat="45.61439" lon="4.47041">
        <ele>613.173218</ele>
        <time>2019-07-12T08:30:16Z</time>
      </trkpt>
      <trkpt lat="45.61452" lon="4.47101">
        <ele>626.871887</ele>
        <time>2019-07-12T08:30:22Z</time>
      </trkpt>
      <trkpt lat="45.61457" lon="4.47228">
        <ele>642.399048</ele>
        <time>2019-07-12T08:30:24Z</time>
      </trkpt>
      <trkpt lat="45.61466" lon="4.47261">
        <ele>642.812378</ele>
        <time>2019-07-12T08:30:30Z</time>
      </trkpt>
      <trkpt lat="45.61399" lon="4.47358">
        <ele>642.981262</ele>
        <time>2019-07-12T08:30:50Z</time>
      </trkpt>
      <trkpt lat="45.61389" lon="4.4739">
        <ele>643.381836</ele>
        <time>2019-07-12T08:31:22Z</time>
      </trkpt>
      <trkpt lat="45.61397" lon="4.47401">
        <ele>644.069275</ele>
        <time>2019-07-12T08:31:26Z</time>
      </trkpt>
      <trkpt lat="45.61418" lon="4.47413">
        <ele>643.314636</ele>
        <time>2019-07-12T08:32:00Z</time>
      </trkpt>
      <trkpt lat="45.61486" lon="4.47489">
        <ele>641.237366</ele>
        <time>2019-07-12T08:32:12Z</time>
      </trkpt>
      <trkpt lat="45.61577" lon="4.47641">
        <ele>629.169189</ele>
        <time>2019-07-12T08:32:21Z</time>
      </trkpt>
      <trkpt lat="45.61591" lon="4.4765">
        <ele>626.780029</ele>
        <time>2019-07-12T08:32:45Z</time>
      </trkpt>
      <trkpt lat="45.61675" lon="4.4748">
        <ele>607.342041</ele>
        <time>2019-07-12T08:32:55Z</time>
      </trkpt>
      <trkpt lat="45.61692" lon="4.47411">
        <ele>604.875977</ele>
        <time>2019-07-12T08:33:04Z</time>
      </trkpt>
      <trkpt lat="45.6172" lon="4.47369">
        <ele>603.462585</ele>
        <time>2019-07-12T08:33:13Z</time>
      </trkpt>
      <trkpt lat="45.61811" lon="4.4731">
        <ele>597.63916</ele>
        <time>2019-07-12T08:33:30Z</time>
      </trkpt>
      <trkpt lat="45.61843" lon="4.4727">
        <ele>596.639648</ele>
        <time>2019-07-12T08:33:39Z</time>
      </trkpt>
      <trkpt lat="45.61884" lon="4.47259">
        <ele>591.055725</ele>
        <time>2019-07-12T08:33:46Z</time>
      </trkpt>
      <trkpt lat="45.61916" lon="4.47238">
        <ele>587.594971</ele>
        <time>2019-07-12T08:34:02Z</time>
      </trkpt>
      <trkpt lat="45.61971" lon="4.47167">
        <ele>583.469116</ele>
        <time>2019-07-12T08:34:11Z</time>
      </trkpt>
      <trkpt lat="45.61995" lon="4.47122">
        <ele>585.482605</ele>
        <time>2019-07-12T08:34:18Z</time>
      </trkpt>
      <trkpt lat="45.62019" lon="4.47099">
        <ele>589.363953</ele>
        <time>2019-07-12T08:34:49Z</time>
      </trkpt>
      <trkpt lat="45.62083" lon="4.47136">
        <ele>585.660645</ele>
        <time>2019-07-12T08:35:15Z</time>
      </trkpt>
      <trkpt lat="45.62119" lon="4.47132">
        <ele>581.979553</ele>
        <time>2019-07-12T08:35:48Z</time>
      </trkpt>
      <trkpt lat="45.62149" lon="4.47114">
        <ele>577.902527</ele>
        <time>2019-07-12T08:36:19Z</time>
      </trkpt>
      <trkpt lat="45.62251" lon="4.4699">
        <ele>563.380554</ele>
        <time>2019-07-12T08:36:26Z</time>
      </trkpt>
      <trkpt lat="45.62345" lon="4.46909">
        <ele>560.265015</ele>
        <time>2019-07-12T08:36:38Z</time>
      </trkpt>
      <trkpt lat="45.62441" lon="4.46758">
        <ele>552.44751</ele>
        <time>2019-07-12T08:36:51Z</time>
      </trkpt>
      <trkpt lat="45.6248" lon="4.46581">
        <ele>537.831238</ele>
        <time>2019-07-12T08:36:57Z</time>
      </trkpt>
      <trkpt lat="45.62493" lon="4.46539">
        <ele>533.118774</ele>
        <time>2019-07-12T08:37:08Z</time>
      </trkpt>
      <trkpt lat="45.62533" lon="4.46492">
        <ele>521.88501</ele>
        <time>2019-07-12T08:37:14Z</time>
      </trkpt>
      <trkpt lat="45.62587" lon="4.46477">
        <ele>508.861359</ele>
        <time>2019-07-12T08:37:25Z</time>
      </trkpt>
      <trkpt lat="45.62611" lon="4.46482">
        <ele>504.795135</ele>
        <time>2019-07-12T08:37:39Z</time>
      </trkpt>
      <trkpt lat="45.62659" lon="4.4647">
        <ele>505.036011</ele>
        <time>2019-07-12T08:37:53Z</time>
      </trkpt>
      <trkpt lat="45.6268" lon="4.4645">
        <ele>510.064484</ele>
        <time>2019-07-12T08:37:58Z</time>
      </trkpt>
      <trkpt lat="45.62708" lon="4.46395">
        <ele>516.744568</ele>
        <time>2019-07-12T08:38:10Z</time>
      </trkpt>
      <trkpt lat="45.62748" lon="4.46336">
        <ele>520.97876</ele>
        <time>2019-07-12T08:38:52Z</time>
      </trkpt>
      <trkpt lat="45.62781" lon="4.46262">
        <ele>522.417175</ele>
        <time>2019-07-12T08:39:03Z</time>
      </trkpt>
      <trkpt lat="45.62788" lon="4.46235">
        <ele>524.625732</ele>
        <time>2019-07-12T08:39:09Z</time>
      </trkpt>
      <trkpt lat="45.62787" lon="4.46159">
        <ele>528.887512</ele>
        <time>2019-07-12T08:39:21Z</time>
      </trkpt>
      <trkpt lat="45.62837" lon="4.45914">
        <ele>535.035522</ele>
        <time>2019-07-12T08:39:38Z</time>
      </trkpt>
      <trkpt lat="45.62844" lon="4.45848">
        <ele>536.571045</ele>
        <time>2019-07-12T08:39:55Z</time>
      </trkpt>
      <trkpt lat="45.62855" lon="4.45809">
        <ele>538.608643</ele>
        <time>2019-07-12T08:39:58Z</time>
      </trkpt>
      <trkpt lat="45.62888" lon="4.45756">
        <ele>543.741272</ele>
        <time>2019-07-12T08:40:08Z</time>
      </trkpt>
      <trkpt lat="45.62918" lon="4.45663">
        <ele>549.064453</ele>
        <time>2019-07-12T08:40:13Z</time>
      </trkpt>
      <trkpt lat="45.62962" lon="4.45581">
        <ele>552.786316</ele>
        <time>2019-07-12T08:40:18Z</time>
      </trkpt>
      <trkpt lat="45.62963" lon="4.45563">
        <ele>553.357422</ele>
        <time>2019-07-12T08:40:37Z</time>
      </trkpt>
      <trkpt lat="45.62952" lon="4.45501">
        <ele>553.835022</ele>
        <time>2019-07-12T08:40:45Z</time>
      </trkpt>
      <trkpt lat="45.6296" lon="4.45473">
        <ele>556.940002</ele>
        <time>2019-07-12T08:40:50Z</time>
      </trkpt>
      <trkpt lat="45.62977" lon="4.45459">
        <ele>560.34082</ele>
        <time>2019-07-12T08:40:52Z</time>
      </trkpt>
      <trkpt lat="45.63058" lon="4.45495">
        <ele>567.275696</ele>
        <time>2019-07-12T08:41:08Z</time>
      </trkpt>
      <trkpt lat="45.63073" lon="4.4545">
        <ele>568.995483</ele>
        <time>2019-07-12T08:41:16Z</time>
      </trkpt>
      <trkpt lat="45.63072" lon="4.45423">
        <ele>567.80957</ele>
        <time>2019-07-12T08:41:27Z</time>
      </trkpt>
      <trkpt lat="45.6308" lon="4.45413">
        <ele>567.86731</ele>
        <time>2019-07-12T08:41:36Z</time>
      </trkpt>
      <trkpt lat="45.63143" lon="4.45442">
        <ele>575.690063</ele>
        <time>2019-07-12T08:41:43Z</time>
      </trkpt>
      <trkpt lat="45.63169" lon="4.45476">
        <ele>578.999084</ele>
        <time>2019-07-12T08:41:51Z</time>
      </trkpt>
      <trkpt lat="45.63211" lon="4.45507">
        <ele>581.599976</ele>
        <time>2019-07-12T08:41:56Z</time>
      </trkpt>
      <trkpt lat="45.63246" lon="4.45523">
        <ele>583.300903</ele>
        <time>2019-07-12T08:42:03Z</time>
      </trkpt>
      <trkpt lat="45.63277" lon="4.45528">
        <ele>583.817505</ele>
        <time>2019-07-12T08:42:14Z</time>
      </trkpt>
      <trkpt lat="45.63311" lon="4.45516">
        <ele>577.946716</ele>
        <time>2019-07-12T08:42:19Z</time>
      </trkpt>
      <trkpt lat="45.6333" lon="4.4552">
        <ele>573.544983</ele>
        <time>2019-07-12T08:42:22Z</time>
      </trkpt>
      <trkpt lat="45.63345" lon="4.45562">
        <ele>570.464294</ele>
        <time>2019-07-12T08:42:37Z</time>
      </trkpt>
      <trkpt lat="45.63345" lon="4.45627">
        <ele>573.640869</ele>
        <time>2019-07-12T08:42:55Z</time>
      </trkpt>
      <trkpt lat="45.6334" lon="4.45658">
        <ele>575.385437</ele>
        <time>2019-07-12T08:43:02Z</time>
      </trkpt>
      <trkpt lat="45.6335" lon="4.45662">
        <ele>576.023315</ele>
        <time>2019-07-12T08:43:12Z</time>
      </trkpt>
      <trkpt lat="45.63414" lon="4.45646">
        <ele>576.579407</ele>
        <time>2019-07-12T08:43:19Z</time>
      </trkpt>
      <trkpt lat="45.63488" lon="4.45604">
        <ele>572.496765</ele>
        <time>2019-07-12T08:43:28Z</time>
      </trkpt>
      <trkpt lat="45.63518" lon="4.45607">
        <ele>570.737488</ele>
        <time>2019-07-12T08:44:02Z</time>
      </trkpt>
      <trkpt lat="45.63548" lon="4.45647">
        <ele>573.142639</ele>
        <time>2019-07-12T08:44:09Z</time>
      </trkpt>
      <trkpt lat="45.63574" lon="4.45666">
        <ele>573.323242</ele>
        <time>2019-07-12T08:44:15Z</time>
      </trkpt>
      <trkpt lat="45.63612" lon="4.45671">
        <ele>570.718872</ele>
        <time>2019-07-12T08:44:21Z</time>
      </trkpt>
      <trkpt lat="45.63755" lon="4.45622">
        <ele>576.420593</ele>
        <time>2019-07-12T08:44:36Z</time>
      </trkpt>
      <trkpt lat="45.63782" lon="4.45604">
        <ele>577.057617</ele>
        <time>2019-07-12T08:44:57Z</time>
      </trkpt>
      <trkpt lat="45.63801" lon="4.45579">
        <ele>579.520813</ele>
        <time>2019-07-12T08:45:03Z</time>
      </trkpt>
      <trkpt lat="45.63814" lon="4.45548">
        <ele>579.597778</ele>
        <time>2019-07-12T08:45:16Z</time>
      </trkpt>
      <trkpt lat="45.63836" lon="4.45462">
        <ele>583.195374</ele>
        <time>2019-07-12T08:45:38Z</time>
      </trkpt>
      <trkpt lat="45.63853" lon="4.45337">
        <ele>592.074768</ele>
        <time>2019-07-12T08:45:46Z</time>
      </trkpt>
      <trkpt lat="45.63863" lon="4.45299">
        <ele>594.403992</ele>
        <time>2019-07-12T08:46:07Z</time>
      </trkpt>
      <trkpt lat="45.63897" lon="4.45241">
        <ele>598.289978</ele>
        <time>2019-07-12T08:46:14Z</time>
      </trkpt>
      <trkpt lat="45.63978" lon="4.45169">
        <ele>603.976807</ele>
        <time>2019-07-12T08:46:38Z</time>
      </trkpt>
      <trkpt lat="45.64" lon="4.45134">
        <ele>606.341248</ele>
        <time>2019-07-12T08:46:44Z</time>
      </trkpt>
      <trkpt lat="45.64048" lon="4.45024">
        <ele>615.392639</ele>
        <time>2019-07-12T08:46:51Z</time>
      </trkpt>
      <trkpt lat="45.64071" lon="4.44994">
        <ele>618.232849</ele>
        <time>2019-07-12T08:47:11Z</time>
      </trkpt>
      <trkpt lat="45.64167" lon="4.44938">
        <ele>626.844604</ele>
        <time>2019-07-12T08:47:19Z</time>
      </trkpt>
      <trkpt lat="45.64191" lon="4.44935">
        <ele>628.352783</ele>
        <time>2019-07-12T08:47:45Z</time>
      </trkpt>
      <trkpt lat="45.64221" lon="4.44941">
        <ele>629.752197</ele>
      </trkpt>
      <trkpt lat="45.64301" lon="4.44985">
        <ele>632</ele>
      </trkpt>
      <trkpt lat="45.64334" lon="4.44993">
        <ele>632.071106</ele>
      </trkpt>
      <trkpt lat="45.64444" lon="4.4497">
        <ele>634.5625</ele>
      </trkpt>
    </trkseg>
  </trk>
</gpx>